<?xml version="1.0" encoding="UTF-8" standalone="no" ?><gpx xmlns="http://www.topografix.com/GPX/1/1" xmlns:gpxx="http://www.garmin.com/xmlschemas/GpxExtensions/v3" xmlns:wptx1="http://www.garmin.com/xmlschemas/WaypointExtension/v1" xmlns:gpxtpx="http://www.garmin.com/xmlschemas/TrackPointExtension/v1" creator="Dakota 20" version="1.1" xmlns:xsi="http://www.w3.org/2001/XMLSchema-instance" xsi:schemaLocation="http://www.topografix.com/GPX/1/1 http://www.topografix.com/GPX/1/1/gpx.xsd http://www.garmin.com/xmlschemas/GpxExtensions/v3 http://www8.garmin.com/xmlschemas/GpxExtensionsv3.xsd http://www.garmin.com/xmlschemas/WaypointExtension/v1 http://www8.garmin.com/xmlschemas/WaypointExtensionv1.xsd http://www.garmin.com/xmlschemas/TrackPointExtension/v1 http://www.garmin.com/xmlschemas/TrackPointExtensionv1.xsd"><metadata><link href="http://www.garmin.com"><text>Garmin International</text></link><time>2011-11-16T17:11:27Z</time></metadata><trk><name>Current Track: 16 NOV 2011 10:00</name><extensions><gpxx:TrackExtension><gpxx:DisplayColor>Black</gpxx:DisplayColor></gpxx:TrackExtension></extensions><trkseg><trkpt lat="51.7720089667" lon="-2.3644688353"><ele>3.98</ele><time>2011-11-16T10:00:14Z</time></trkpt><trkpt lat="51.7720089667" lon="-2.3644688353"><ele>3.98</ele><time>2011-11-16T10:00:26Z</time></trkpt><trkpt lat="51.7720027640" lon="-2.3644669075"><ele>4.46</ele><time>2011-11-16T10:00:27Z</time></trkpt><trkpt lat="51.7719750199" lon="-2.3644689191"><ele>3.98</ele><time>2011-11-16T10:00:30Z</time></trkpt><trkpt lat="51.7719261535" lon="-2.3644701764"><ele>3.98</ele><time>2011-11-16T10:00:39Z</time></trkpt><trkpt lat="51.7719261535" lon="-2.3644701764"><ele>3.98</ele><time>2011-11-16T10:00:53Z</time></trkpt><trkpt lat="51.7719261535" lon="-2.3644701764"><ele>3.98</ele><time>2011-11-16T10:01:06Z</time></trkpt><trkpt lat="51.7719113175" lon="-2.3644625489"><ele>3.98</ele><time>2011-11-16T10:01:19Z</time></trkpt><trkpt lat="51.7719113175" lon="-2.3644625489"><ele>4.46</ele><time>2011-11-16T10:01:29Z</time></trkpt><trkpt lat="51.7719113175" lon="-2.3644625489"><ele>3.98</ele><time>2011-11-16T10:01:40Z</time></trkpt><trkpt lat="51.7719035223" lon="-2.3644377384"><ele>3.98</ele><time>2011-11-16T10:01:44Z</time></trkpt><trkpt lat="51.7718754429" lon="-2.3643108364"><ele>3.98</ele><time>2011-11-16T10:01:52Z</time></trkpt><trkpt lat="51.7718251515" lon="-2.3642043862"><ele>3.98</ele><time>2011-11-16T10:01:59Z</time></trkpt><trkpt lat="51.7717787996" lon="-2.3640672583"><ele>3.98</ele><time>2011-11-16T10:02:07Z</time></trkpt><trkpt lat="51.7717232276" lon="-2.3639536835"><ele>3.50</ele><time>2011-11-16T10:02:15Z</time></trkpt><trkpt lat="51.7717078049" lon="-2.3639383446"><ele>3.98</ele><time>2011-11-16T10:02:17Z</time></trkpt><trkpt lat="51.7716410011" lon="-2.3639618140"><ele>3.50</ele><time>2011-11-16T10:02:23Z</time></trkpt><trkpt lat="51.7715746164" lon="-2.3639070801"><ele>3.98</ele><time>2011-11-16T10:02:29Z</time></trkpt><trkpt lat="51.7714801524" lon="-2.3639012128"><ele>3.98</ele><time>2011-11-16T10:02:36Z</time></trkpt><trkpt lat="51.7713804916" lon="-2.3639424518"><ele>3.98</ele><time>2011-11-16T10:02:44Z</time></trkpt><trkpt lat="51.7712758854" lon="-2.3639612272"><ele>3.98</ele><time>2011-11-16T10:02:51Z</time></trkpt><trkpt lat="51.7712633964" lon="-2.3639663402"><ele>4.46</ele><time>2011-11-16T10:02:52Z</time></trkpt><trkpt lat="51.7711649928" lon="-2.3640126921"><ele>3.98</ele><time>2011-11-16T10:03:00Z</time></trkpt><trkpt lat="51.7710842751" lon="-2.3640638217"><ele>4.46</ele><time>2011-11-16T10:03:07Z</time></trkpt><trkpt lat="51.7709855363" lon="-2.3641263507"><ele>4.46</ele><time>2011-11-16T10:03:15Z</time></trkpt><trkpt lat="51.7709270306" lon="-2.3641573638"><ele>4.46</ele><time>2011-11-16T10:03:20Z</time></trkpt><trkpt lat="51.7708085105" lon="-2.3641917296"><ele>4.46</ele><time>2011-11-16T10:03:29Z</time></trkpt><trkpt lat="51.7706937622" lon="-2.3642633110"><ele>3.98</ele><time>2011-11-16T10:03:37Z</time></trkpt><trkpt lat="51.7706003878" lon="-2.3643363174"><ele>4.46</ele><time>2011-11-16T10:03:45Z</time></trkpt><trkpt lat="51.7705070134" lon="-2.3644382413"><ele>4.46</ele><time>2011-11-16T10:03:54Z</time></trkpt><trkpt lat="51.7704202607" lon="-2.3645215575"><ele>4.46</ele><time>2011-11-16T10:04:02Z</time></trkpt><trkpt lat="51.7703783512" lon="-2.3645487148"><ele>4.46</ele><time>2011-11-16T10:04:09Z</time></trkpt><trkpt lat="51.7703704722" lon="-2.3645472899"><ele>4.94</ele><time>2011-11-16T10:04:19Z</time></trkpt><trkpt lat="51.7703704722" lon="-2.3645472899"><ele>4.46</ele><time>2011-11-16T10:04:30Z</time></trkpt><trkpt lat="51.7703568097" lon="-2.3645327892"><ele>4.94</ele><time>2011-11-16T10:04:41Z</time></trkpt><trkpt lat="51.7702542152" lon="-2.3644482158"><ele>4.94</ele><time>2011-11-16T10:04:51Z</time></trkpt><trkpt lat="51.7701618467" lon="-2.3643773049"><ele>4.94</ele><time>2011-11-16T10:05:00Z</time></trkpt><trkpt lat="51.7701300792" lon="-2.3643642291"><ele>4.94</ele><time>2011-11-16T10:05:03Z</time></trkpt><trkpt lat="51.7701130640" lon="-2.3643501475"><ele>5.42</ele><time>2011-11-16T10:05:05Z</time></trkpt><trkpt lat="51.7700402252" lon="-2.3643637262"><ele>5.42</ele><time>2011-11-16T10:05:14Z</time></trkpt><trkpt lat="51.7699907720" lon="-2.3644487187"><ele>5.42</ele><time>2011-11-16T10:05:22Z</time></trkpt><trkpt lat="51.7699821386" lon="-2.3644516524"><ele>4.94</ele><time>2011-11-16T10:05:23Z</time></trkpt><trkpt lat="51.7699616030" lon="-2.3644661531"><ele>5.42</ele><time>2011-11-16T10:05:25Z</time></trkpt><trkpt lat="51.7699002475" lon="-2.3645184562"><ele>5.91</ele><time>2011-11-16T10:05:32Z</time></trkpt><trkpt lat="51.7698568292" lon="-2.3645866849"><ele>5.91</ele><time>2011-11-16T10:05:38Z</time></trkpt><trkpt lat="51.7698021792" lon="-2.3646655586"><ele>5.42</ele><time>2011-11-16T10:05:45Z</time></trkpt><trkpt lat="51.7697577551" lon="-2.3647766188"><ele>5.42</ele><time>2011-11-16T10:05:54Z</time></trkpt><trkpt lat="51.7697526421" lon="-2.3647877667"><ele>5.42</ele><time>2011-11-16T10:05:55Z</time></trkpt><trkpt lat="51.7696941365" lon="-2.3648193665"><ele>5.42</ele><time>2011-11-16T10:06:02Z</time></trkpt><trkpt lat="51.7696761992" lon="-2.3648501281"><ele>5.42</ele><time>2011-11-16T10:06:05Z</time></trkpt><trkpt lat="51.7696137540" lon="-2.3649108130"><ele>4.94</ele><time>2011-11-16T10:06:13Z</time></trkpt><trkpt lat="51.7695683241" lon="-2.3649564944"><ele>5.42</ele><time>2011-11-16T10:06:20Z</time></trkpt><trkpt lat="51.7695608642" lon="-2.3649618588"><ele>5.42</ele><time>2011-11-16T10:06:28Z</time></trkpt><trkpt lat="51.7694318667" lon="-2.3650738411"><ele>5.42</ele><time>2011-11-16T10:06:38Z</time></trkpt><trkpt lat="51.7693459522" lon="-2.3651698139"><ele>5.42</ele><time>2011-11-16T10:06:46Z</time></trkpt><trkpt lat="51.7692856863" lon="-2.3652557284"><ele>5.42</ele><time>2011-11-16T10:06:53Z</time></trkpt><trkpt lat="51.7692084052" lon="-2.3653257173"><ele>5.42</ele><time>2011-11-16T10:07:01Z</time></trkpt><trkpt lat="51.7691343091" lon="-2.3653707281"><ele>5.42</ele><time>2011-11-16T10:07:08Z</time></trkpt><trkpt lat="51.7690644879" lon="-2.3654194269"><ele>5.42</ele><time>2011-11-16T10:07:15Z</time></trkpt><trkpt lat="51.7690429464" lon="-2.3654470034"><ele>5.42</ele><time>2011-11-16T10:07:18Z</time></trkpt><trkpt lat="51.7689653300" lon="-2.3655090295"><ele>5.91</ele><time>2011-11-16T10:07:26Z</time></trkpt><trkpt lat="51.7689019628" lon="-2.3655652720"><ele>5.91</ele><time>2011-11-16T10:07:33Z</time></trkpt><trkpt lat="51.7688483186" lon="-2.3656228557"><ele>5.91</ele><time>2011-11-16T10:07:41Z</time></trkpt><trkpt lat="51.7688428704" lon="-2.3655719776"><ele>5.91</ele><time>2011-11-16T10:07:46Z</time></trkpt><trkpt lat="51.7687995359" lon="-2.3655560520"><ele>6.39</ele><time>2011-11-16T10:07:51Z</time></trkpt><trkpt lat="51.7687689420" lon="-2.3655526992"><ele>5.91</ele><time>2011-11-16T10:07:54Z</time></trkpt><trkpt lat="51.7686634976" lon="-2.3655210156"><ele>5.91</ele><time>2011-11-16T10:08:03Z</time></trkpt><trkpt lat="51.7685831990" lon="-2.3655062634"><ele>5.91</ele><time>2011-11-16T10:08:11Z</time></trkpt><trkpt lat="51.7685023136" lon="-2.3655044194"><ele>6.39</ele><time>2011-11-16T10:08:18Z</time></trkpt><trkpt lat="51.7684049159" lon="-2.3655199260"><ele>6.39</ele><time>2011-11-16T10:08:26Z</time></trkpt><trkpt lat="51.7683350947" lon="-2.3654850572"><ele>6.39</ele><time>2011-11-16T10:08:33Z</time></trkpt><trkpt lat="51.7682947777" lon="-2.3653824627"><ele>6.39</ele><time>2011-11-16T10:08:42Z</time></trkpt><trkpt lat="51.7682781816" lon="-2.3653681297"><ele>6.39</ele><time>2011-11-16T10:08:50Z</time></trkpt><trkpt lat="51.7682781816" lon="-2.3653681297"><ele>6.39</ele><time>2011-11-16T10:09:02Z</time></trkpt><trkpt lat="51.7682781816" lon="-2.3653681297"><ele>6.39</ele><time>2011-11-16T10:09:15Z</time></trkpt><trkpt lat="51.7683041655" lon="-2.3653421458"><ele>6.39</ele><time>2011-11-16T10:09:23Z</time></trkpt><trkpt lat="51.7683290597" lon="-2.3654074408"><ele>6.39</ele><time>2011-11-16T10:09:31Z</time></trkpt><trkpt lat="51.7683432251" lon="-2.3654392082"><ele>6.39</ele><time>2011-11-16T10:09:34Z</time></trkpt><trkpt lat="51.7683931813" lon="-2.3655982129"><ele>6.39</ele><time>2011-11-16T10:09:44Z</time></trkpt><trkpt lat="51.7684724741" lon="-2.3657586426"><ele>6.87</ele><time>2011-11-16T10:09:53Z</time></trkpt><trkpt lat="51.7684927583" lon="-2.3658044916"><ele>6.87</ele><time>2011-11-16T10:10:01Z</time></trkpt><trkpt lat="51.7685010564" lon="-2.3658319842"><ele>6.87</ele><time>2011-11-16T10:10:10Z</time></trkpt><trkpt lat="51.7684924230" lon="-2.3658914957"><ele>6.39</ele><time>2011-11-16T10:10:13Z</time></trkpt><trkpt lat="51.7684550397" lon="-2.3659510911"><ele>6.87</ele><time>2011-11-16T10:10:18Z</time></trkpt><trkpt lat="51.7683868948" lon="-2.3660468962"><ele>6.87</ele><time>2011-11-16T10:10:26Z</time></trkpt><trkpt lat="51.7682966217" lon="-2.3661648296"><ele>6.39</ele><time>2011-11-16T10:10:36Z</time></trkpt><trkpt lat="51.7682125513" lon="-2.3662839364"><ele>6.39</ele><time>2011-11-16T10:10:45Z</time></trkpt><trkpt lat="51.7681522015" lon="-2.3663437832"><ele>5.91</ele><time>2011-11-16T10:10:53Z</time></trkpt><trkpt lat="51.7680756748" lon="-2.3664216511"><ele>6.39</ele><time>2011-11-16T10:11:00Z</time></trkpt><trkpt lat="51.7679939512" lon="-2.3664823361"><ele>6.39</ele><time>2011-11-16T10:11:08Z</time></trkpt><trkpt lat="51.7679223698" lon="-2.3665246647"><ele>5.91</ele><time>2011-11-16T10:11:16Z</time></trkpt><trkpt lat="51.7678336892" lon="-2.3665888701"><ele>6.87</ele><time>2011-11-16T10:11:25Z</time></trkpt><trkpt lat="51.7678180151" lon="-2.3666063044"><ele>7.35</ele><time>2011-11-16T10:11:31Z</time></trkpt><trkpt lat="51.7678180151" lon="-2.3666063044"><ele>6.87</ele><time>2011-11-16T10:11:34Z</time></trkpt><trkpt lat="51.7677822243" lon="-2.3666317854"><ele>6.39</ele><time>2011-11-16T10:11:37Z</time></trkpt><trkpt lat="51.7677437514" lon="-2.3666518182"><ele>6.87</ele><time>2011-11-16T10:11:40Z</time></trkpt><trkpt lat="51.7676673084" lon="-2.3667385709"><ele>6.87</ele><time>2011-11-16T10:11:48Z</time></trkpt><trkpt lat="51.7675743531" lon="-2.3668331187"><ele>6.87</ele><time>2011-11-16T10:11:58Z</time></trkpt><trkpt lat="51.7674794700" lon="-2.3669412453"><ele>6.39</ele><time>2011-11-16T10:12:08Z</time></trkpt><trkpt lat="51.7673978303" lon="-2.3670245614"><ele>6.39</ele><time>2011-11-16T10:12:17Z</time></trkpt><trkpt lat="51.7673124187" lon="-2.3671413213"><ele>6.87</ele><time>2011-11-16T10:12:28Z</time></trkpt><trkpt lat="51.7672173679" lon="-2.3672271520"><ele>6.39</ele><time>2011-11-16T10:12:37Z</time></trkpt><trkpt lat="51.7671546713" lon="-2.3672781140"><ele>6.39</ele><time>2011-11-16T10:12:45Z</time></trkpt><trkpt lat="51.7670911364" lon="-2.3673550598"><ele>7.35</ele><time>2011-11-16T10:12:53Z</time></trkpt><trkpt lat="51.7670236621" lon="-2.3674247973"><ele>6.87</ele><time>2011-11-16T10:13:01Z</time></trkpt><trkpt lat="51.7669607978" lon="-2.3674879968"><ele>6.87</ele><time>2011-11-16T10:13:09Z</time></trkpt><trkpt lat="51.7669485603" lon="-2.3675037548"><ele>7.35</ele><time>2011-11-16T10:13:11Z</time></trkpt><trkpt lat="51.7669234145" lon="-2.3675348517"><ele>7.35</ele><time>2011-11-16T10:13:15Z</time></trkpt><trkpt lat="51.7668604665" lon="-2.3676292319"><ele>6.87</ele><time>2011-11-16T10:13:24Z</time></trkpt><trkpt lat="51.7667862028" lon="-2.3676959518"><ele>6.39</ele><time>2011-11-16T10:13:33Z</time></trkpt><trkpt lat="51.7667087540" lon="-2.3677697964"><ele>6.87</ele><time>2011-11-16T10:13:42Z</time></trkpt><trkpt lat="51.7666639108" lon="-2.3678250331"><ele>6.87</ele><time>2011-11-16T10:13:47Z</time></trkpt><trkpt lat="51.7666365858" lon="-2.3678626679"><ele>7.35</ele><time>2011-11-16T10:13:55Z</time></trkpt><trkpt lat="51.7665443849" lon="-2.3679837864"><ele>6.87</ele><time>2011-11-16T10:14:05Z</time></trkpt><trkpt lat="51.7664858792" lon="-2.3680599779"><ele>6.87</ele><time>2011-11-16T10:14:12Z</time></trkpt><trkpt lat="51.7664317321" lon="-2.3681522626"><ele>6.87</ele><time>2011-11-16T10:14:21Z</time></trkpt><trkpt lat="51.7664130405" lon="-2.3682049848"><ele>7.35</ele><time>2011-11-16T10:14:25Z</time></trkpt><trkpt lat="51.7663328256" lon="-2.3683709465"><ele>6.87</ele><time>2011-11-16T10:14:34Z</time></trkpt><trkpt lat="51.7662923411" lon="-2.3684853595"><ele>6.87</ele><time>2011-11-16T10:14:42Z</time></trkpt><trkpt lat="51.7662909161" lon="-2.3685726151"><ele>7.35</ele><time>2011-11-16T10:14:50Z</time></trkpt><trkpt lat="51.7662909161" lon="-2.3685726151"><ele>6.87</ele><time>2011-11-16T10:15:01Z</time></trkpt><trkpt lat="51.7662865575" lon="-2.3686236609"><ele>6.87</ele><time>2011-11-16T10:15:12Z</time></trkpt><trkpt lat="51.7662853841" lon="-2.3686280195"><ele>6.87</ele><time>2011-11-16T10:15:22Z</time></trkpt><trkpt lat="51.7662029900" lon="-2.3687198851"><ele>6.87</ele><time>2011-11-16T10:15:33Z</time></trkpt><trkpt lat="51.7661412153" lon="-2.3688064702"><ele>6.87</ele><time>2011-11-16T10:15:43Z</time></trkpt><trkpt lat="51.7660756689" lon="-2.3688969109"><ele>7.35</ele><time>2011-11-16T10:15:53Z</time></trkpt><trkpt lat="51.7660637666" lon="-2.3689207993"><ele>6.87</ele><time>2011-11-16T10:16:03Z</time></trkpt><trkpt lat="51.7659865692" lon="-2.3689689953"><ele>6.39</ele><time>2011-11-16T10:16:12Z</time></trkpt><trkpt lat="51.7659755051" lon="-2.3690484557"><ele>6.87</ele><time>2011-11-16T10:16:19Z</time></trkpt><trkpt lat="51.7659121379" lon="-2.3691378068"><ele>6.39</ele><time>2011-11-16T10:16:29Z</time></trkpt><trkpt lat="51.7658445798" lon="-2.3692053650"><ele>6.39</ele><time>2011-11-16T10:16:37Z</time></trkpt><trkpt lat="51.7658356111" lon="-2.3692056164"><ele>6.39</ele><time>2011-11-16T10:16:48Z</time></trkpt><trkpt lat="51.7658102140" lon="-2.3692384735"><ele>6.39</ele><time>2011-11-16T10:16:57Z</time></trkpt><trkpt lat="51.7658102140" lon="-2.3692384735"><ele>6.87</ele><time>2011-11-16T10:17:15Z</time></trkpt><trkpt lat="51.7658102140" lon="-2.3692384735"><ele>6.39</ele><time>2011-11-16T10:17:28Z</time></trkpt><trkpt lat="51.7657978926" lon="-2.3692426644"><ele>6.39</ele><time>2011-11-16T10:17:43Z</time></trkpt><trkpt lat="51.7657930311" lon="-2.3692239728"><ele>6.39</ele><time>2011-11-16T10:17:54Z</time></trkpt><trkpt lat="51.7657766026" lon="-2.3691869248"><ele>5.91</ele><time>2011-11-16T10:18:03Z</time></trkpt><trkpt lat="51.7657729983" lon="-2.3691836558"><ele>6.39</ele><time>2011-11-16T10:18:13Z</time></trkpt><trkpt lat="51.7657729983" lon="-2.3691836558"><ele>6.87</ele><time>2011-11-16T10:18:28Z</time></trkpt><trkpt lat="51.7657729983" lon="-2.3691836558"><ele>6.39</ele><time>2011-11-16T10:18:39Z</time></trkpt><trkpt lat="51.7657223716" lon="-2.3692001682"><ele>5.91</ele><time>2011-11-16T10:18:48Z</time></trkpt><trkpt lat="51.7656759359" lon="-2.3692476936"><ele>6.39</ele><time>2011-11-16T10:18:55Z</time></trkpt><trkpt lat="51.7656314280" lon="-2.3692823946"><ele>6.39</ele><time>2011-11-16T10:19:01Z</time></trkpt><trkpt lat="51.7655650433" lon="-2.3694107216"><ele>6.39</ele><time>2011-11-16T10:19:09Z</time></trkpt><trkpt lat="51.7655586731" lon="-2.3694257252"><ele>5.91</ele><time>2011-11-16T10:19:10Z</time></trkpt><trkpt lat="51.7655066215" lon="-2.3695068620"><ele>6.39</ele><time>2011-11-16T10:19:18Z</time></trkpt><trkpt lat="51.7654984910" lon="-2.3695089575"><ele>6.39</ele><time>2011-11-16T10:19:23Z</time></trkpt><trkpt lat="51.7654456850" lon="-2.3695524596"><ele>6.39</ele><time>2011-11-16T10:19:30Z</time></trkpt><trkpt lat="51.7653702479" lon="-2.3696149047"><ele>6.87</ele><time>2011-11-16T10:19:39Z</time></trkpt><trkpt lat="51.7652967386" lon="-2.3696892522"><ele>6.39</ele><time>2011-11-16T10:19:48Z</time></trkpt><trkpt lat="51.7652358860" lon="-2.3697332572"><ele>6.39</ele><time>2011-11-16T10:19:54Z</time></trkpt><trkpt lat="51.7652117461" lon="-2.3697453272"><ele>6.87</ele><time>2011-11-16T10:19:56Z</time></trkpt><trkpt lat="51.7651880253" lon="-2.3697573133"><ele>6.87</ele><time>2011-11-16T10:19:58Z</time></trkpt><trkpt lat="51.7650841735" lon="-2.3698835447"><ele>6.39</ele><time>2011-11-16T10:20:09Z</time></trkpt><trkpt lat="51.7649958283" lon="-2.3699289747"><ele>6.39</ele><time>2011-11-16T10:20:17Z</time></trkpt><trkpt lat="51.7649174575" lon="-2.3699769191"><ele>6.87</ele><time>2011-11-16T10:20:26Z</time></trkpt><trkpt lat="51.7648655735" lon="-2.3700174037"><ele>7.35</ele><time>2011-11-16T10:20:32Z</time></trkpt><trkpt lat="51.7648201436" lon="-2.3700338323"><ele>6.39</ele><time>2011-11-16T10:20:40Z</time></trkpt><trkpt lat="51.7647649068" lon="-2.3700581398"><ele>6.87</ele><time>2011-11-16T10:20:48Z</time></trkpt><trkpt lat="51.7646833509" lon="-2.3700795975"><ele>6.39</ele><time>2011-11-16T10:20:56Z</time></trkpt><trkpt lat="51.7646188941" lon="-2.3701157235"><ele>6.87</ele><time>2011-11-16T10:21:06Z</time></trkpt><trkpt lat="51.7645911500" lon="-2.3701470718"><ele>6.87</ele><time>2011-11-16T10:21:15Z</time></trkpt><trkpt lat="51.7645911500" lon="-2.3701470718"><ele>6.87</ele><time>2011-11-16T10:21:23Z</time></trkpt><trkpt lat="51.7645515036" lon="-2.3701831140"><ele>6.87</ele><time>2011-11-16T10:21:27Z</time></trkpt><trkpt lat="51.7644581292" lon="-2.3702717107"><ele>6.39</ele><time>2011-11-16T10:21:36Z</time></trkpt><trkpt lat="51.7643689457" lon="-2.3703545239"><ele>6.87</ele><time>2011-11-16T10:21:45Z</time></trkpt><trkpt lat="51.7642856296" lon="-2.3704517540"><ele>6.39</ele><time>2011-11-16T10:21:53Z</time></trkpt><trkpt lat="51.7641883157" lon="-2.3705443740"><ele>6.87</ele><time>2011-11-16T10:22:02Z</time></trkpt><trkpt lat="51.7641494237" lon="-2.3705815896"><ele>6.87</ele><time>2011-11-16T10:22:07Z</time></trkpt><trkpt lat="51.7640903313" lon="-2.3706271872"><ele>6.39</ele><time>2011-11-16T10:22:15Z</time></trkpt><trkpt lat="51.7640265450" lon="-2.3706918955"><ele>6.87</ele><time>2011-11-16T10:22:25Z</time></trkpt><trkpt lat="51.7639690451" lon="-2.3707264289"><ele>6.87</ele><time>2011-11-16T10:22:33Z</time></trkpt><trkpt lat="51.7638987210" lon="-2.3707939032"><ele>6.87</ele><time>2011-11-16T10:22:42Z</time></trkpt><trkpt lat="51.7638173327" lon="-2.3708710168"><ele>7.35</ele><time>2011-11-16T10:22:52Z</time></trkpt><trkpt lat="51.7637595814" lon="-2.3709322885"><ele>7.35</ele><time>2011-11-16T10:23:01Z</time></trkpt><trkpt lat="51.7636688054" lon="-2.3709873576"><ele>7.35</ele><time>2011-11-16T10:23:10Z</time></trkpt><trkpt lat="51.7635785323" lon="-2.3710750323"><ele>7.35</ele><time>2011-11-16T10:23:21Z</time></trkpt><trkpt lat="51.7635029275" lon="-2.3711452726"><ele>7.35</ele><time>2011-11-16T10:23:30Z</time></trkpt><trkpt lat="51.7634307593" lon="-2.3712029401"><ele>6.87</ele><time>2011-11-16T10:23:41Z</time></trkpt><trkpt lat="51.7633916996" lon="-2.3712541535"><ele>7.35</ele><time>2011-11-16T10:23:50Z</time></trkpt><trkpt lat="51.7632989120" lon="-2.3713295907"><ele>6.87</ele><time>2011-11-16T10:23:59Z</time></trkpt><trkpt lat="51.7632155959" lon="-2.3713832349"><ele>7.83</ele><time>2011-11-16T10:24:09Z</time></trkpt><trkpt lat="51.7631319445" lon="-2.3714492004"><ele>7.83</ele><time>2011-11-16T10:24:18Z</time></trkpt><trkpt lat="51.7630469520" lon="-2.3715264816"><ele>7.35</ele><time>2011-11-16T10:24:28Z</time></trkpt><trkpt lat="51.7629891168" lon="-2.3715761025"><ele>6.87</ele><time>2011-11-16T10:24:36Z</time></trkpt><trkpt lat="51.7629575171" lon="-2.3715963028"><ele>6.87</ele><time>2011-11-16T10:24:43Z</time></trkpt><trkpt lat="51.7628970835" lon="-2.3716425709"><ele>6.87</ele><time>2011-11-16T10:24:52Z</time></trkpt><trkpt lat="51.7628307827" lon="-2.3717017472"><ele>6.87</ele><time>2011-11-16T10:25:00Z</time></trkpt><trkpt lat="51.7627435271" lon="-2.3717717361"><ele>6.39</ele><time>2011-11-16T10:25:09Z</time></trkpt><trkpt lat="51.7627221532" lon="-2.3718163278"><ele>6.39</ele><time>2011-11-16T10:25:17Z</time></trkpt><trkpt lat="51.7626874521" lon="-2.3718465026"><ele>6.39</ele><time>2011-11-16T10:25:21Z</time></trkpt><trkpt lat="51.7626311257" lon="-2.3718827963"><ele>6.39</ele><time>2011-11-16T10:25:29Z</time></trkpt><trkpt lat="51.7626038846" lon="-2.3719185032"><ele>6.39</ele><time>2011-11-16T10:25:34Z</time></trkpt><trkpt lat="51.7625255976" lon="-2.3719916772"><ele>6.39</ele><time>2011-11-16T10:25:42Z</time></trkpt><trkpt lat="51.7625162937" lon="-2.3720024899"><ele>6.39</ele><time>2011-11-16T10:25:43Z</time></trkpt><trkpt lat="51.7623946723" lon="-2.3721265420"><ele>6.39</ele><time>2011-11-16T10:25:52Z</time></trkpt><trkpt lat="51.7623290420" lon="-2.3721935134"><ele>6.39</ele><time>2011-11-16T10:26:00Z</time></trkpt><trkpt lat="51.7622614838" lon="-2.3722437210"><ele>6.87</ele><time>2011-11-16T10:26:08Z</time></trkpt><trkpt lat="51.7622321472" lon="-2.3722788412"><ele>6.39</ele><time>2011-11-16T10:26:15Z</time></trkpt><trkpt lat="51.7622048222" lon="-2.3723086808"><ele>6.87</ele><time>2011-11-16T10:26:25Z</time></trkpt><trkpt lat="51.7621692829" lon="-2.3723430466"><ele>6.87</ele><time>2011-11-16T10:26:36Z</time></trkpt><trkpt lat="51.7621484119" lon="-2.3723702040"><ele>7.35</ele><time>2011-11-16T10:26:44Z</time></trkpt><trkpt lat="51.7621009704" lon="-2.3724286258"><ele>6.87</ele><time>2011-11-16T10:26:51Z</time></trkpt><trkpt lat="51.7620838713" lon="-2.3724455573"><ele>6.87</ele><time>2011-11-16T10:27:00Z</time></trkpt><trkpt lat="51.7620406207" lon="-2.3724977765"><ele>6.39</ele><time>2011-11-16T10:27:09Z</time></trkpt><trkpt lat="51.7619106174" lon="-2.3726256005"><ele>5.91</ele><time>2011-11-16T10:27:18Z</time></trkpt><trkpt lat="51.7617687117" lon="-2.3727996089"><ele>5.42</ele><time>2011-11-16T10:27:27Z</time></trkpt><trkpt lat="51.7616234533" lon="-2.3729229905"><ele>5.91</ele><time>2011-11-16T10:27:35Z</time></trkpt><trkpt lat="51.7615308333" lon="-2.3729869444"><ele>6.39</ele><time>2011-11-16T10:27:42Z</time></trkpt><trkpt lat="51.7614280712" lon="-2.3730442766"><ele>6.87</ele><time>2011-11-16T10:27:51Z</time></trkpt><trkpt lat="51.7614159174" lon="-2.3730478808"><ele>6.87</ele><time>2011-11-16T10:27:52Z</time></trkpt><trkpt lat="51.7613425758" lon="-2.3730982561"><ele>6.87</ele><time>2011-11-16T10:28:00Z</time></trkpt><trkpt lat="51.7612577509" lon="-2.3731008545"><ele>7.35</ele><time>2011-11-16T10:28:10Z</time></trkpt><trkpt lat="51.7612367123" lon="-2.3731122538"><ele>7.35</ele><time>2011-11-16T10:28:22Z</time></trkpt><trkpt lat="51.7611962277" lon="-2.3731173668"><ele>7.35</ele><time>2011-11-16T10:28:31Z</time></trkpt><trkpt lat="51.7611699924" lon="-2.3731041234"><ele>6.87</ele><time>2011-11-16T10:28:36Z</time></trkpt><trkpt lat="51.7610842455" lon="-2.3731491342"><ele>6.87</ele><time>2011-11-16T10:28:45Z</time></trkpt><trkpt lat="51.7610250693" lon="-2.3732098192"><ele>6.87</ele><time>2011-11-16T10:28:54Z</time></trkpt><trkpt lat="51.7609855067" lon="-2.3732222244"><ele>6.87</ele><time>2011-11-16T10:29:02Z</time></trkpt><trkpt lat="51.7609427590" lon="-2.3732362222"><ele>6.87</ele><time>2011-11-16T10:29:10Z</time></trkpt><trkpt lat="51.7608633824" lon="-2.3732606135"><ele>6.87</ele><time>2011-11-16T10:29:17Z</time></trkpt><trkpt lat="51.7608078942" lon="-2.3732583504"><ele>6.39</ele><time>2011-11-16T10:29:26Z</time></trkpt><trkpt lat="51.7606838420" lon="-2.3733601905"><ele>6.39</ele><time>2011-11-16T10:29:34Z</time></trkpt><trkpt lat="51.7606084887" lon="-2.3733965680"><ele>6.39</ele><time>2011-11-16T10:29:41Z</time></trkpt><trkpt lat="51.7605452891" lon="-2.3734414112"><ele>6.39</ele><time>2011-11-16T10:29:50Z</time></trkpt><trkpt lat="51.7605348956" lon="-2.3734389804"><ele>6.39</ele><time>2011-11-16T10:30:01Z</time></trkpt><trkpt lat="51.7605304532" lon="-2.3734378908"><ele>6.87</ele><time>2011-11-16T10:30:11Z</time></trkpt><trkpt lat="51.7605001107" lon="-2.3734653834"><ele>6.87</ele><time>2011-11-16T10:30:19Z</time></trkpt><trkpt lat="51.7604874540" lon="-2.3734721728"><ele>6.87</ele><time>2011-11-16T10:30:29Z</time></trkpt><trkpt lat="51.7604874540" lon="-2.3734721728"><ele>6.87</ele><time>2011-11-16T10:30:41Z</time></trkpt><trkpt lat="51.7604460474" lon="-2.3735056166"><ele>6.87</ele><time>2011-11-16T10:30:56Z</time></trkpt><trkpt lat="51.7604460474" lon="-2.3735056166"><ele>6.39</ele><time>2011-11-16T10:31:14Z</time></trkpt><trkpt lat="51.7604313791" lon="-2.3735119868"><ele>6.39</ele><time>2011-11-16T10:31:25Z</time></trkpt><trkpt lat="51.7604014557" lon="-2.3735402338"><ele>6.39</ele><time>2011-11-16T10:31:33Z</time></trkpt><trkpt lat="51.7603943311" lon="-2.3735558242"><ele>6.87</ele><time>2011-11-16T10:31:42Z</time></trkpt><trkpt lat="51.7603466380" lon="-2.3736118991"><ele>6.87</ele><time>2011-11-16T10:31:51Z</time></trkpt><trkpt lat="51.7603245098" lon="-2.3736417387"><ele>6.87</ele><time>2011-11-16T10:31:58Z</time></trkpt><trkpt lat="51.7602962628" lon="-2.3736557364"><ele>6.87</ele><time>2011-11-16T10:32:06Z</time></trkpt><trkpt lat="51.7602962628" lon="-2.3736557364"><ele>7.35</ele><time>2011-11-16T10:32:18Z</time></trkpt><trkpt lat="51.7602905631" lon="-2.3736706562"><ele>7.35</ele><time>2011-11-16T10:32:27Z</time></trkpt><trkpt lat="51.7602905631" lon="-2.3736706562"><ele>7.35</ele><time>2011-11-16T10:32:36Z</time></trkpt><trkpt lat="51.7602905631" lon="-2.3736706562"><ele>7.35</ele><time>2011-11-16T10:32:50Z</time></trkpt><trkpt lat="51.7602520902" lon="-2.3737202771"><ele>7.35</ele><time>2011-11-16T10:32:58Z</time></trkpt><trkpt lat="51.7602564488" lon="-2.3737192713"><ele>3.98</ele><time>2011-11-16T10:33:05Z</time></trkpt><trkpt lat="51.7602564488" lon="-2.3737192713"><ele>7.83</ele><time>2011-11-16T10:33:06Z</time></trkpt><trkpt lat="51.7602564488" lon="-2.3737192713"><ele>7.83</ele><time>2011-11-16T10:33:20Z</time></trkpt><trkpt lat="51.7602564488" lon="-2.3737192713"><ele>7.35</ele><time>2011-11-16T10:33:34Z</time></trkpt><trkpt lat="51.7602564488" lon="-2.3737192713"><ele>11.67</ele><time>2011-11-16T10:33:36Z</time></trkpt><trkpt lat="51.7602564488" lon="-2.3737192713"><ele>8.31</ele><time>2011-11-16T10:33:37Z</time></trkpt><trkpt lat="51.7602557782" lon="-2.3737216182"><ele>7.83</ele><time>2011-11-16T10:33:52Z</time></trkpt><trkpt lat="51.7602504138" lon="-2.3737336881"><ele>7.35</ele><time>2011-11-16T10:33:55Z</time></trkpt><trkpt lat="51.7601218354" lon="-2.3738616798"><ele>7.83</ele><time>2011-11-16T10:34:05Z</time></trkpt><trkpt lat="51.7600301374" lon="-2.3739430681"><ele>7.83</ele><time>2011-11-16T10:34:13Z</time></trkpt><trkpt lat="51.7599406186" lon="-2.3740368616"><ele>8.31</ele><time>2011-11-16T10:34:21Z</time></trkpt><trkpt lat="51.7598636728" lon="-2.3741242010"><ele>8.31</ele><time>2011-11-16T10:34:29Z</time></trkpt><trkpt lat="51.7597801890" lon="-2.3742370214"><ele>8.31</ele><time>2011-11-16T10:34:38Z</time></trkpt><trkpt lat="51.7597483378" lon="-2.3742919229"><ele>8.31</ele><time>2011-11-16T10:34:46Z</time></trkpt><trkpt lat="51.7597509362" lon="-2.3743149731"><ele>14.56</ele><time>2011-11-16T10:34:59Z</time></trkpt><trkpt lat="51.7597263772" lon="-2.3744200822"><ele>9.27</ele><time>2011-11-16T10:35:08Z</time></trkpt><trkpt lat="51.7597170733" lon="-2.3744365945"><ele>9.27</ele><time>2011-11-16T10:35:15Z</time></trkpt><trkpt lat="51.7596440669" lon="-2.3744513467"><ele>9.75</ele><time>2011-11-16T10:35:22Z</time></trkpt><trkpt lat="51.7595345993" lon="-2.3744930886"><ele>9.75</ele><time>2011-11-16T10:35:32Z</time></trkpt><trkpt lat="51.7594884150" lon="-2.3744847905"><ele>9.75</ele><time>2011-11-16T10:35:38Z</time></trkpt><trkpt lat="51.7594113853" lon="-2.3745184019"><ele>9.75</ele><time>2011-11-16T10:35:46Z</time></trkpt><trkpt lat="51.7593688052" lon="-2.3745273706"><ele>10.23</ele><time>2011-11-16T10:35:52Z</time></trkpt><trkpt lat="51.7592532188" lon="-2.3745521810"><ele>10.71</ele><time>2011-11-16T10:36:02Z</time></trkpt><trkpt lat="51.7591269873" lon="-2.3745706212"><ele>9.75</ele><time>2011-11-16T10:36:14Z</time></trkpt><trkpt lat="51.7590228003" lon="-2.3745939229"><ele>10.23</ele><time>2011-11-16T10:36:23Z</time></trkpt><trkpt lat="51.7589147575" lon="-2.3746267799"><ele>9.75</ele><time>2011-11-16T10:36:32Z</time></trkpt><trkpt lat="51.7587578483" lon="-2.3746352457"><ele>9.75</ele><time>2011-11-16T10:36:44Z</time></trkpt><trkpt lat="51.7586817406" lon="-2.3746349942"><ele>10.23</ele><time>2011-11-16T10:36:51Z</time></trkpt><trkpt lat="51.7586493026" lon="-2.3746673483"><ele>10.71</ele><time>2011-11-16T10:36:58Z</time></trkpt><trkpt lat="51.7586534098" lon="-2.3747627344"><ele>11.67</ele><time>2011-11-16T10:37:07Z</time></trkpt><trkpt lat="51.7586562596" lon="-2.3748381715"><ele>11.67</ele><time>2011-11-16T10:37:15Z</time></trkpt><trkpt lat="51.7586532421" lon="-2.3748504929"><ele>11.67</ele><time>2011-11-16T10:37:24Z</time></trkpt><trkpt lat="51.7586532421" lon="-2.3748504929"><ele>11.19</ele><time>2011-11-16T10:37:35Z</time></trkpt><trkpt lat="51.7586532421" lon="-2.3748504929"><ele>11.67</ele><time>2011-11-16T10:37:43Z</time></trkpt><trkpt lat="51.7586603668" lon="-2.3749068193"><ele>11.67</ele><time>2011-11-16T10:37:51Z</time></trkpt><trkpt lat="51.7586603668" lon="-2.3749068193"><ele>11.67</ele><time>2011-11-16T10:38:06Z</time></trkpt><trkpt lat="51.7586684134" lon="-2.3749334738"><ele>12.15</ele><time>2011-11-16T10:38:16Z</time></trkpt><trkpt lat="51.7586684134" lon="-2.3749334738"><ele>11.67</ele><time>2011-11-16T10:38:26Z</time></trkpt><trkpt lat="51.7586684134" lon="-2.3749334738"><ele>11.67</ele><time>2011-11-16T10:38:37Z</time></trkpt><trkpt lat="51.7586684134" lon="-2.3749334738"><ele>11.67</ele><time>2011-11-16T10:38:48Z</time></trkpt><trkpt lat="51.7586706765" lon="-2.3749459628"><ele>11.67</ele><time>2011-11-16T10:39:01Z</time></trkpt><trkpt lat="51.7586767953" lon="-2.3749495670"><ele>11.67</ele><time>2011-11-16T10:39:12Z</time></trkpt><trkpt lat="51.7586767953" lon="-2.3749495670"><ele>11.67</ele><time>2011-11-16T10:39:23Z</time></trkpt><trkpt lat="51.7586767953" lon="-2.3749495670"><ele>12.63</ele><time>2011-11-16T10:39:32Z</time></trkpt><trkpt lat="51.7586767953" lon="-2.3749495670"><ele>12.15</ele><time>2011-11-16T10:39:46Z</time></trkpt><trkpt lat="51.7586902063" lon="-2.3749917280"><ele>12.15</ele><time>2011-11-16T10:39:54Z</time></trkpt><trkpt lat="51.7587128375" lon="-2.3750988487"><ele>11.19</ele><time>2011-11-16T10:40:02Z</time></trkpt><trkpt lat="51.7587539088" lon="-2.3751376569"><ele>10.71</ele><time>2011-11-16T10:40:10Z</time></trkpt><trkpt lat="51.7588295974" lon="-2.3751251679"><ele>10.71</ele><time>2011-11-16T10:40:20Z</time></trkpt><trkpt lat="51.7588779610" lon="-2.3751034588"><ele>10.23</ele><time>2011-11-16T10:40:29Z</time></trkpt><trkpt lat="51.7589222174" lon="-2.3750830069"><ele>10.71</ele><time>2011-11-16T10:40:36Z</time></trkpt><trkpt lat="51.7589779571" lon="-2.3750847671"><ele>10.23</ele><time>2011-11-16T10:40:45Z</time></trkpt><trkpt lat="51.7590637039" lon="-2.3750766367"><ele>10.71</ele><time>2011-11-16T10:40:54Z</time></trkpt><trkpt lat="51.7590857483" lon="-2.3750569392"><ele>10.71</ele><time>2011-11-16T10:41:04Z</time></trkpt><trkpt lat="51.7591204494" lon="-2.3750567716"><ele>11.19</ele><time>2011-11-16T10:41:12Z</time></trkpt><trkpt lat="51.7591434158" lon="-2.3750488926"><ele>10.71</ele><time>2011-11-16T10:41:24Z</time></trkpt><trkpt lat="51.7592116445" lon="-2.3750280216"><ele>10.71</ele><time>2011-11-16T10:41:32Z</time></trkpt><trkpt lat="51.7592296656" lon="-2.3750282731"><ele>11.19</ele><time>2011-11-16T10:41:42Z</time></trkpt><trkpt lat="51.7592750955" lon="-2.3750333022"><ele>10.71</ele><time>2011-11-16T10:41:49Z</time></trkpt><trkpt lat="51.7592819687" lon="-2.3750324640"><ele>10.23</ele><time>2011-11-16T10:41:50Z</time></trkpt><trkpt lat="51.7593376245" lon="-2.3750171252"><ele>15.52</ele><time>2011-11-16T10:41:56Z</time></trkpt><trkpt lat="51.7593434080" lon="-2.3750183824"><ele>11.67</ele><time>2011-11-16T10:41:57Z</time></trkpt><trkpt lat="51.7593558133" lon="-2.3750172090"><ele>10.71</ele><time>2011-11-16T10:41:59Z</time></trkpt><trkpt lat="51.7594215274" lon="-2.3750013672"><ele>10.71</ele><time>2011-11-16T10:42:07Z</time></trkpt><trkpt lat="51.7595847230" lon="-2.3749652412"><ele>10.71</ele><time>2011-11-16T10:42:16Z</time></trkpt><trkpt lat="51.7596682068" lon="-2.3749408498"><ele>10.71</ele><time>2011-11-16T10:42:24Z</time></trkpt><trkpt lat="51.7597350106" lon="-2.3749297019"><ele>10.71</ele><time>2011-11-16T10:42:31Z</time></trkpt><trkpt lat="51.7598056700" lon="-2.3749183025"><ele>10.71</ele><time>2011-11-16T10:42:40Z</time></trkpt><trkpt lat="51.7598429695" lon="-2.3749140278"><ele>11.19</ele><time>2011-11-16T10:42:50Z</time></trkpt><trkpt lat="51.7599081807" lon="-2.3749091662"><ele>10.71</ele><time>2011-11-16T10:42:58Z</time></trkpt><trkpt lat="51.7599954363" lon="-2.3749008682"><ele>10.71</ele><time>2011-11-16T10:43:06Z</time></trkpt><trkpt lat="51.7600736395" lon="-2.3748906422"><ele>10.71</ele><time>2011-11-16T10:43:12Z</time></trkpt><trkpt lat="51.7601576261" lon="-2.3748603836"><ele>10.71</ele><time>2011-11-16T10:43:20Z</time></trkpt><trkpt lat="51.7601712886" lon="-2.3748551030"><ele>10.71</ele><time>2011-11-16T10:43:29Z</time></trkpt><trkpt lat="51.7601846159" lon="-2.3748500738"><ele>10.71</ele><time>2011-11-16T10:43:33Z</time></trkpt><trkpt lat="51.7602088396" lon="-2.3748375848"><ele>10.23</ele><time>2011-11-16T10:43:35Z</time></trkpt><trkpt lat="51.7603161279" lon="-2.3748189770"><ele>10.71</ele><time>2011-11-16T10:43:44Z</time></trkpt><trkpt lat="51.7603367474" lon="-2.3748237547"><ele>10.23</ele><time>2011-11-16T10:43:53Z</time></trkpt><trkpt lat="51.7603702750" lon="-2.3748263530"><ele>10.71</ele><time>2011-11-16T10:44:00Z</time></trkpt><trkpt lat="51.7604317144" lon="-2.3748021293"><ele>10.23</ele><time>2011-11-16T10:44:08Z</time></trkpt><trkpt lat="51.7604859453" lon="-2.3747931607"><ele>10.71</ele><time>2011-11-16T10:44:12Z</time></trkpt><trkpt lat="51.7606076505" lon="-2.3747586273"><ele>10.71</ele><time>2011-11-16T10:44:21Z</time></trkpt><trkpt lat="51.7606361490" lon="-2.3747587111"><ele>10.23</ele><time>2011-11-16T10:44:25Z</time></trkpt><trkpt lat="51.7607689183" lon="-2.3747273628"><ele>10.23</ele><time>2011-11-16T10:44:37Z</time></trkpt><trkpt lat="51.7608656455" lon="-2.3746732157"><ele>10.23</ele><time>2011-11-16T10:44:46Z</time></trkpt><trkpt lat="51.7609259952" lon="-2.3746786639"><ele>10.23</ele><time>2011-11-16T10:44:52Z</time></trkpt><trkpt lat="51.7609477881" lon="-2.3746766523"><ele>10.23</ele><time>2011-11-16T10:44:54Z</time></trkpt><trkpt lat="51.7610568367" lon="-2.3746534344"><ele>10.23</ele><time>2011-11-16T10:45:04Z</time></trkpt><trkpt lat="51.7611469422" lon="-2.3746480700"><ele>10.23</ele><time>2011-11-16T10:45:14Z</time></trkpt><trkpt lat="51.7611863371" lon="-2.3746377602"><ele>10.23</ele><time>2011-11-16T10:45:21Z</time></trkpt><trkpt lat="51.7612730060" lon="-2.3746328987"><ele>10.23</ele><time>2011-11-16T10:45:29Z</time></trkpt><trkpt lat="51.7613600940" lon="-2.3746099323"><ele>10.23</ele><time>2011-11-16T10:45:37Z</time></trkpt><trkpt lat="51.7614460923" lon="-2.3745995387"><ele>10.23</ele><time>2011-11-16T10:45:46Z</time></trkpt><trkpt lat="51.7615373712" lon="-2.3745893966"><ele>10.23</ele><time>2011-11-16T10:45:54Z</time></trkpt><trkpt lat="51.7615942005" lon="-2.3745671846"><ele>10.23</ele><time>2011-11-16T10:46:03Z</time></trkpt><trkpt lat="51.7616232019" lon="-2.3745425418"><ele>9.75</ele><time>2011-11-16T10:46:12Z</time></trkpt><trkpt lat="51.7616397981" lon="-2.3745391890"><ele>10.23</ele><time>2011-11-16T10:46:14Z</time></trkpt><trkpt lat="51.7617553007" lon="-2.3745107744"><ele>10.23</ele><time>2011-11-16T10:46:23Z</time></trkpt><trkpt lat="51.7617658619" lon="-2.3745057452"><ele>10.23</ele><time>2011-11-16T10:46:24Z</time></trkpt><trkpt lat="51.7618287262" lon="-2.3744913284"><ele>10.23</ele><time>2011-11-16T10:46:30Z</time></trkpt><trkpt lat="51.7619332485" lon="-2.3744630814"><ele>10.23</ele><time>2011-11-16T10:46:40Z</time></trkpt><trkpt lat="51.7620369326" lon="-2.3744448088"><ele>10.23</ele><time>2011-11-16T10:46:50Z</time></trkpt><trkpt lat="51.7621218413" lon="-2.3744341638"><ele>10.23</ele><time>2011-11-16T10:46:59Z</time></trkpt><trkpt lat="51.7622128688" lon="-2.3744139634"><ele>10.23</ele><time>2011-11-16T10:47:08Z</time></trkpt><trkpt lat="51.7622238491" lon="-2.3744131252"><ele>10.71</ele><time>2011-11-16T10:47:14Z</time></trkpt><trkpt lat="51.7623231746" lon="-2.3743953556"><ele>10.23</ele><time>2011-11-16T10:47:24Z</time></trkpt><trkpt lat="51.7624282837" lon="-2.3743883986"><ele>10.71</ele><time>2011-11-16T10:47:32Z</time></trkpt><trkpt lat="51.7624981049" lon="-2.3743727244"><ele>10.23</ele><time>2011-11-16T10:47:39Z</time></trkpt><trkpt lat="51.7625045590" lon="-2.3743766639"><ele>10.23</ele><time>2011-11-16T10:47:49Z</time></trkpt><trkpt lat="51.7625426967" lon="-2.3743701261"><ele>10.23</ele><time>2011-11-16T10:47:59Z</time></trkpt><trkpt lat="51.7626103386" lon="-2.3743500095"><ele>10.23</ele><time>2011-11-16T10:48:07Z</time></trkpt><trkpt lat="51.7627417669" lon="-2.3743166495"><ele>10.23</ele><time>2011-11-16T10:48:17Z</time></trkpt><trkpt lat="51.7628352251" lon="-2.3743013944"><ele>10.71</ele><time>2011-11-16T10:48:25Z</time></trkpt><trkpt lat="51.7628614604" lon="-2.3743006401"><ele>10.23</ele><time>2011-11-16T10:48:28Z</time></trkpt><trkpt lat="51.7629743647" lon="-2.3742728122"><ele>10.23</ele><time>2011-11-16T10:48:38Z</time></trkpt><trkpt lat="51.7630925495" lon="-2.3742392007"><ele>10.23</ele><time>2011-11-16T10:48:47Z</time></trkpt><trkpt lat="51.7631996702" lon="-2.3742126301"><ele>10.23</ele><time>2011-11-16T10:48:55Z</time></trkpt><trkpt lat="51.7632829864" lon="-2.3741958663"><ele>10.23</ele><time>2011-11-16T10:49:03Z</time></trkpt><trkpt lat="51.7633519694" lon="-2.3741838802"><ele>10.71</ele><time>2011-11-16T10:49:09Z</time></trkpt><trkpt lat="51.7633945495" lon="-2.3741668649"><ele>10.71</ele><time>2011-11-16T10:49:13Z</time></trkpt><trkpt lat="51.7635186855" lon="-2.3741404619"><ele>10.71</ele><time>2011-11-16T10:49:24Z</time></trkpt><trkpt lat="51.7635271512" lon="-2.3741364386"><ele>10.71</ele><time>2011-11-16T10:49:31Z</time></trkpt><trkpt lat="51.7635673843" lon="-2.3741324991"><ele>10.71</ele><time>2011-11-16T10:49:42Z</time></trkpt><trkpt lat="51.7635673843" lon="-2.3741324991"><ele>10.71</ele><time>2011-11-16T10:49:53Z</time></trkpt><trkpt lat="51.7636120599" lon="-2.3741223570"><ele>10.71</ele><time>2011-11-16T10:50:02Z</time></trkpt><trkpt lat="51.7636995669" lon="-2.3740967084"><ele>10.71</ele><time>2011-11-16T10:50:10Z</time></trkpt><trkpt lat="51.7638094537" lon="-2.3740634322"><ele>10.71</ele><time>2011-11-16T10:50:19Z</time></trkpt><trkpt lat="51.7639154848" lon="-2.3740482610"><ele>10.23</ele><time>2011-11-16T10:50:28Z</time></trkpt><trkpt lat="51.7640581448" lon="-2.3740097880"><ele>10.23</ele><time>2011-11-16T10:50:39Z</time></trkpt><trkpt lat="51.7641647626" lon="-2.3739803676"><ele>10.23</ele><time>2011-11-16T10:50:49Z</time></trkpt><trkpt lat="51.7642683629" lon="-2.3739476781"><ele>10.23</ele><time>2011-11-16T10:50:58Z</time></trkpt><trkpt lat="51.7643782496" lon="-2.3739216942"><ele>10.71</ele><time>2011-11-16T10:51:07Z</time></trkpt><trkpt lat="51.7644206621" lon="-2.3739123903"><ele>10.71</ele><time>2011-11-16T10:51:15Z</time></trkpt><trkpt lat="51.7644663434" lon="-2.3739117198"><ele>10.23</ele><time>2011-11-16T10:51:23Z</time></trkpt><trkpt lat="51.7645669263" lon="-2.3738898430"><ele>10.23</ele><time>2011-11-16T10:51:33Z</time></trkpt><trkpt lat="51.7646308802" lon="-2.3738872446"><ele>10.71</ele><time>2011-11-16T10:51:42Z</time></trkpt><trkpt lat="51.7646765616" lon="-2.3738794494"><ele>10.23</ele><time>2011-11-16T10:51:48Z</time></trkpt><trkpt lat="51.7647356540" lon="-2.3738641944"><ele>10.23</ele><time>2011-11-16T10:51:56Z</time></trkpt><trkpt lat="51.7648095824" lon="-2.3738513701"><ele>10.71</ele><time>2011-11-16T10:52:05Z</time></trkpt><trkpt lat="51.7648834269" lon="-2.3738361988"><ele>10.71</ele><time>2011-11-16T10:52:13Z</time></trkpt><trkpt lat="51.7649493925" lon="-2.3738260567"><ele>10.71</ele><time>2011-11-16T10:52:21Z</time></trkpt><trkpt lat="51.7650226504" lon="-2.3738004919"><ele>10.71</ele><time>2011-11-16T10:52:31Z</time></trkpt><trkpt lat="51.7650947347" lon="-2.3738002405"><ele>10.71</ele><time>2011-11-16T10:52:40Z</time></trkpt><trkpt lat="51.7651665676" lon="-2.3737868294"><ele>10.71</ele><time>2011-11-16T10:52:48Z</time></trkpt><trkpt lat="51.7652664799" lon="-2.3737598397"><ele>10.71</ele><time>2011-11-16T10:52:57Z</time></trkpt><trkpt lat="51.7653461080" lon="-2.3737324309"><ele>10.71</ele><time>2011-11-16T10:53:06Z</time></trkpt><trkpt lat="51.7654217966" lon="-2.3737174273"><ele>10.71</ele><time>2011-11-16T10:53:15Z</time></trkpt><trkpt lat="51.7654904444" lon="-2.3736967240"><ele>10.71</ele><time>2011-11-16T10:53:23Z</time></trkpt><trkpt lat="51.7655696534" lon="-2.3736688960"><ele>10.71</ele><time>2011-11-16T10:53:31Z</time></trkpt><trkpt lat="51.7656533048" lon="-2.3736569937"><ele>10.71</ele><time>2011-11-16T10:53:40Z</time></trkpt><trkpt lat="51.7657180130" lon="-2.3736397270"><ele>10.71</ele><time>2011-11-16T10:53:48Z</time></trkpt><trkpt lat="51.7657885887" lon="-2.3736212868"><ele>11.19</ele><time>2011-11-16T10:53:57Z</time></trkpt><trkpt lat="51.7658725753" lon="-2.3735923693"><ele>11.19</ele><time>2011-11-16T10:54:06Z</time></trkpt><trkpt lat="51.7659462523" lon="-2.3735743482"><ele>11.19</ele><time>2011-11-16T10:54:14Z</time></trkpt><trkpt lat="51.7660228629" lon="-2.3735587578"><ele>11.19</ele><time>2011-11-16T10:54:24Z</time></trkpt><trkpt lat="51.7660710588" lon="-2.3735470232"><ele>11.19</ele><time>2011-11-16T10:54:34Z</time></trkpt><trkpt lat="51.7660737410" lon="-2.3735479452"><ele>11.19</ele><time>2011-11-16T10:54:48Z</time></trkpt><trkpt lat="51.7660949472" lon="-2.3735503759"><ele>12.15</ele><time>2011-11-16T10:54:56Z</time></trkpt><trkpt lat="51.7660949472" lon="-2.3735503759"><ele>11.19</ele><time>2011-11-16T10:54:57Z</time></trkpt><trkpt lat="51.7660017405" lon="-2.3735600989"><ele>11.67</ele><time>2011-11-16T10:55:03Z</time></trkpt><trkpt lat="51.7658455018" lon="-2.3736063670"><ele>11.67</ele><time>2011-11-16T10:55:14Z</time></trkpt><trkpt lat="51.7657428235" lon="-2.3736262321"><ele>11.19</ele><time>2011-11-16T10:55:21Z</time></trkpt><trkpt lat="51.7656244710" lon="-2.3736379668"><ele>11.67</ele><time>2011-11-16T10:55:30Z</time></trkpt><trkpt lat="51.7655061185" lon="-2.3736807145"><ele>11.67</ele><time>2011-11-16T10:55:38Z</time></trkpt><trkpt lat="51.7654452659" lon="-2.3736864142"><ele>11.67</ele><time>2011-11-16T10:55:43Z</time></trkpt><trkpt lat="51.7653042823" lon="-2.3737203609"><ele>11.67</ele><time>2011-11-16T10:55:54Z</time></trkpt><trkpt lat="51.7651844211" lon="-2.3737469316"><ele>11.67</ele><time>2011-11-16T10:56:04Z</time></trkpt><trkpt lat="51.7651085649" lon="-2.3737656232"><ele>12.15</ele><time>2011-11-16T10:56:11Z</time></trkpt><trkpt lat="51.7649933975" lon="-2.3737846501"><ele>11.67</ele><time>2011-11-16T10:56:20Z</time></trkpt><trkpt lat="51.7649470456" lon="-2.3738022521"><ele>11.67</ele><time>2011-11-16T10:56:23Z</time></trkpt><trkpt lat="51.7648493964" lon="-2.3738333490"><ele>12.15</ele><time>2011-11-16T10:56:32Z</time></trkpt><trkpt lat="51.7648601253" lon="-2.3738295771"><ele>11.67</ele><time>2011-11-16T10:56:34Z</time></trkpt><trkpt lat="51.7649827525" lon="-2.3738081194"><ele>11.67</ele><time>2011-11-16T10:56:44Z</time></trkpt><trkpt lat="51.7650276795" lon="-2.3738128133"><ele>11.67</ele><time>2011-11-16T10:56:50Z</time></trkpt><trkpt lat="51.7651035357" lon="-2.3738087900"><ele>12.15</ele><time>2011-11-16T10:56:57Z</time></trkpt><trkpt lat="51.7651821580" lon="-2.3737929482"><ele>11.67</ele><time>2011-11-16T10:57:02Z</time></trkpt><trkpt lat="51.7653139215" lon="-2.3737547267"><ele>11.67</ele><time>2011-11-16T10:57:11Z</time></trkpt><trkpt lat="51.7654689867" lon="-2.3737083748"><ele>12.15</ele><time>2011-11-16T10:57:20Z</time></trkpt><trkpt lat="51.7656191066" lon="-2.3736676387"><ele>11.67</ele><time>2011-11-16T10:57:31Z</time></trkpt><trkpt lat="51.7657463439" lon="-2.3736406490"><ele>11.67</ele><time>2011-11-16T10:57:39Z</time></trkpt><trkpt lat="51.7658729106" lon="-2.3736115638"><ele>12.15</ele><time>2011-11-16T10:57:48Z</time></trkpt><trkpt lat="51.7659957055" lon="-2.3735838197"><ele>12.15</ele><time>2011-11-16T10:57:58Z</time></trkpt><trkpt lat="51.7661058437" lon="-2.3735447600"><ele>12.15</ele><time>2011-11-16T10:58:07Z</time></trkpt><trkpt lat="51.7662193347" lon="-2.3735151719"><ele>12.15</ele><time>2011-11-16T10:58:15Z</time></trkpt><trkpt lat="51.7663111165" lon="-2.3734965641"><ele>12.15</ele><time>2011-11-16T10:58:22Z</time></trkpt><trkpt lat="51.7664334923" lon="-2.3734674789"><ele>11.67</ele><time>2011-11-16T10:58:31Z</time></trkpt><trkpt lat="51.7665477376" lon="-2.3734444287"><ele>12.63</ele><time>2011-11-16T10:58:39Z</time></trkpt><trkpt lat="51.7665914074" lon="-2.3734438419"><ele>12.15</ele><time>2011-11-16T10:58:42Z</time></trkpt><trkpt lat="51.7666764837" lon="-2.3734077159"><ele>12.15</ele><time>2011-11-16T10:58:48Z</time></trkpt><trkpt lat="51.7668227479" lon="-2.3733774573"><ele>12.15</ele><time>2011-11-16T10:58:59Z</time></trkpt><trkpt lat="51.7669224925" lon="-2.3733571731"><ele>12.15</ele><time>2011-11-16T10:59:07Z</time></trkpt><trkpt lat="51.7670639791" lon="-2.3733162694"><ele>12.15</ele><time>2011-11-16T10:59:17Z</time></trkpt><trkpt lat="51.7671687528" lon="-2.3733117431"><ele>11.67</ele><time>2011-11-16T10:59:25Z</time></trkpt><trkpt lat="51.7672812380" lon="-2.3732846696"><ele>12.15</ele><time>2011-11-16T10:59:33Z</time></trkpt><trkpt lat="51.7674056254" lon="-2.3732518964"><ele>12.15</ele><time>2011-11-16T10:59:42Z</time></trkpt><trkpt lat="51.7675205413" lon="-2.3732281756"><ele>12.15</ele><time>2011-11-16T10:59:51Z</time></trkpt><trkpt lat="51.7676443420" lon="-2.3732039519"><ele>12.63</ele><time>2011-11-16T11:00:01Z</time></trkpt><trkpt lat="51.7676560767" lon="-2.3732016049"><ele>12.63</ele><time>2011-11-16T11:00:02Z</time></trkpt><trkpt lat="51.7677942105" lon="-2.3731684126"><ele>12.63</ele><time>2011-11-16T11:00:13Z</time></trkpt><trkpt lat="51.7679244652" lon="-2.3731316999"><ele>12.15</ele><time>2011-11-16T11:00:23Z</time></trkpt><trkpt lat="51.7680175882" lon="-2.3731210548"><ele>12.63</ele><time>2011-11-16T11:00:31Z</time></trkpt><trkpt lat="51.7681278940" lon="-2.3730918020"><ele>12.63</ele><time>2011-11-16T11:00:39Z</time></trkpt><trkpt lat="51.7682361044" lon="-2.3730705958"><ele>12.63</ele><time>2011-11-16T11:00:48Z</time></trkpt><trkpt lat="51.7682573944" lon="-2.3730613757"><ele>12.63</ele><time>2011-11-16T11:00:50Z</time></trkpt><trkpt lat="51.7683343403" lon="-2.3730639741"><ele>12.63</ele><time>2011-11-16T11:00:57Z</time></trkpt><trkpt lat="51.7683754954" lon="-2.3730516527"><ele>12.63</ele><time>2011-11-16T11:01:00Z</time></trkpt><trkpt lat="51.7684198357" lon="-2.3730354756"><ele>12.63</ele><time>2011-11-16T11:01:03Z</time></trkpt><trkpt lat="51.7684920039" lon="-2.3730214778"><ele>12.63</ele><time>2011-11-16T11:01:08Z</time></trkpt><trkpt lat="51.7686321493" lon="-2.3729648162"><ele>12.63</ele><time>2011-11-16T11:01:19Z</time></trkpt><trkpt lat="51.7687591352" lon="-2.3729452025"><ele>12.15</ele><time>2011-11-16T11:01:28Z</time></trkpt><trkpt lat="51.7688669264" lon="-2.3729095794"><ele>12.15</ele><time>2011-11-16T11:01:36Z</time></trkpt><trkpt lat="51.7689732928" lon="-2.3728760518"><ele>12.15</ele><time>2011-11-16T11:01:45Z</time></trkpt><trkpt lat="51.7690740433" lon="-2.3728670832"><ele>12.63</ele><time>2011-11-16T11:01:53Z</time></trkpt><trkpt lat="51.7692185473" lon="-2.3728361540"><ele>12.63</ele><time>2011-11-16T11:02:03Z</time></trkpt><trkpt lat="51.7693355586" lon="-2.3728058953"><ele>12.63</ele><time>2011-11-16T11:02:11Z</time></trkpt><trkpt lat="51.7694019433" lon="-2.3728015367"><ele>12.63</ele><time>2011-11-16T11:02:17Z</time></trkpt><trkpt lat="51.7694930546" lon="-2.3727722000"><ele>12.63</ele><time>2011-11-16T11:02:24Z</time></trkpt><trkpt lat="51.7695757840" lon="-2.3727498204"><ele>12.63</ele><time>2011-11-16T11:02:31Z</time></trkpt><trkpt lat="51.7696700804" lon="-2.3727237526"><ele>12.63</ele><time>2011-11-16T11:02:38Z</time></trkpt><trkpt lat="51.7697061226" lon="-2.3727158736"><ele>12.15</ele><time>2011-11-16T11:02:41Z</time></trkpt><trkpt lat="51.7698493693" lon="-2.3726784065"><ele>12.63</ele><time>2011-11-16T11:02:52Z</time></trkpt><trkpt lat="51.7699419055" lon="-2.3726769816"><ele>13.12</ele><time>2011-11-16T11:03:00Z</time></trkpt><trkpt lat="51.7699543107" lon="-2.3726782389"><ele>13.12</ele><time>2011-11-16T11:03:01Z</time></trkpt><trkpt lat="51.7700826377" lon="-2.3726224154"><ele>12.63</ele><time>2011-11-16T11:03:11Z</time></trkpt><trkpt lat="51.7702162452" lon="-2.3725805059"><ele>12.63</ele><time>2011-11-16T11:03:21Z</time></trkpt><trkpt lat="51.7703366932" lon="-2.3725461401"><ele>12.63</ele><time>2011-11-16T11:03:30Z</time></trkpt><trkpt lat="51.7703812011" lon="-2.3725479841"><ele>12.63</ele><time>2011-11-16T11:03:33Z</time></trkpt><trkpt lat="51.7704972904" lon="-2.3725241795"><ele>12.63</ele><time>2011-11-16T11:03:43Z</time></trkpt><trkpt lat="51.7705809418" lon="-2.3724814318"><ele>12.15</ele><time>2011-11-16T11:03:52Z</time></trkpt><trkpt lat="51.7706100270" lon="-2.3724856228"><ele>12.15</ele><time>2011-11-16T11:03:59Z</time></trkpt><trkpt lat="51.7706690356" lon="-2.3724964354"><ele>13.12</ele><time>2011-11-16T11:04:08Z</time></trkpt><trkpt lat="51.7706849612" lon="-2.3725003749"><ele>12.63</ele><time>2011-11-16T11:04:18Z</time></trkpt><trkpt lat="51.7706888169" lon="-2.3725005426"><ele>13.12</ele><time>2011-11-16T11:04:29Z</time></trkpt><trkpt lat="51.7706839554" lon="-2.3724993691"><ele>13.12</ele><time>2011-11-16T11:04:40Z</time></trkpt><trkpt lat="51.7706695385" lon="-2.3725017998"><ele>13.12</ele><time>2011-11-16T11:04:48Z</time></trkpt><trkpt lat="51.7706557922" lon="-2.3725165520"><ele>12.63</ele><time>2011-11-16T11:04:57Z</time></trkpt><trkpt lat="51.7706474941" lon="-2.3725254368"><ele>13.12</ele><time>2011-11-16T11:05:06Z</time></trkpt><trkpt lat="51.7706474941" lon="-2.3725254368"><ele>13.12</ele><time>2011-11-16T11:05:19Z</time></trkpt><trkpt lat="51.7706474941" lon="-2.3725254368"><ele>13.12</ele><time>2011-11-16T11:05:37Z</time></trkpt><trkpt lat="51.7706469074" lon="-2.3725251015"><ele>13.12</ele><time>2011-11-16T11:05:52Z</time></trkpt><trkpt lat="51.7706469074" lon="-2.3725251015"><ele>13.12</ele><time>2011-11-16T11:06:02Z</time></trkpt><trkpt lat="51.7706485838" lon="-2.3725230061"><ele>13.12</ele><time>2011-11-16T11:06:21Z</time></trkpt><trkpt lat="51.7706485838" lon="-2.3725230061"><ele>13.12</ele><time>2011-11-16T11:06:35Z</time></trkpt><trkpt lat="51.7706485838" lon="-2.3725230061"><ele>12.63</ele><time>2011-11-16T11:06:48Z</time></trkpt><trkpt lat="51.7706478294" lon="-2.3725235928"><ele>13.12</ele><time>2011-11-16T11:07:02Z</time></trkpt><trkpt lat="51.7706478294" lon="-2.3725235928"><ele>13.12</ele><time>2011-11-16T11:07:21Z</time></trkpt><trkpt lat="51.7706478294" lon="-2.3725235928"><ele>13.12</ele><time>2011-11-16T11:07:34Z</time></trkpt><trkpt lat="51.7706448119" lon="-2.3725269455"><ele>13.12</ele><time>2011-11-16T11:07:50Z</time></trkpt><trkpt lat="51.7706448119" lon="-2.3725269455"><ele>13.60</ele><time>2011-11-16T11:08:05Z</time></trkpt><trkpt lat="51.7706466559" lon="-2.3725296278"><ele>13.12</ele><time>2011-11-16T11:08:26Z</time></trkpt><trkpt lat="51.7706466559" lon="-2.3725296278"><ele>13.12</ele><time>2011-11-16T11:08:44Z</time></trkpt><trkpt lat="51.7706448119" lon="-2.3725318071"><ele>13.12</ele><time>2011-11-16T11:09:03Z</time></trkpt><trkpt lat="51.7706448119" lon="-2.3725318071"><ele>13.60</ele><time>2011-11-16T11:09:12Z</time></trkpt><trkpt lat="51.7706448119" lon="-2.3725318071"><ele>13.12</ele><time>2011-11-16T11:09:28Z</time></trkpt><trkpt lat="51.7706446443" lon="-2.3725305498"><ele>13.12</ele><time>2011-11-16T11:09:43Z</time></trkpt><trkpt lat="51.7706446443" lon="-2.3725305498"><ele>13.60</ele><time>2011-11-16T11:09:56Z</time></trkpt><trkpt lat="51.7706446443" lon="-2.3725305498"><ele>13.60</ele><time>2011-11-16T11:10:07Z</time></trkpt><trkpt lat="51.7706457339" lon="-2.3725315556"><ele>13.60</ele><time>2011-11-16T11:10:23Z</time></trkpt><trkpt lat="51.7706457339" lon="-2.3725315556"><ele>13.60</ele><time>2011-11-16T11:10:40Z</time></trkpt><trkpt lat="51.7706457339" lon="-2.3725315556"><ele>13.60</ele><time>2011-11-16T11:10:57Z</time></trkpt><trkpt lat="51.7706447281" lon="-2.3725305498"><ele>13.60</ele><time>2011-11-16T11:11:15Z</time></trkpt><trkpt lat="51.7706447281" lon="-2.3725305498"><ele>13.12</ele><time>2011-11-16T11:11:31Z</time></trkpt><trkpt lat="51.7706455663" lon="-2.3725304659"><ele>13.60</ele><time>2011-11-16T11:11:46Z</time></trkpt><trkpt lat="51.7706455663" lon="-2.3725304659"><ele>13.60</ele><time>2011-11-16T11:11:57Z</time></trkpt><trkpt lat="51.7706455663" lon="-2.3725304659"><ele>13.60</ele><time>2011-11-16T11:12:13Z</time></trkpt><trkpt lat="51.7706453986" lon="-2.3725304659"><ele>14.08</ele><time>2011-11-16T11:12:21Z</time></trkpt><trkpt lat="51.7706453986" lon="-2.3725304659"><ele>14.08</ele><time>2011-11-16T11:12:36Z</time></trkpt><trkpt lat="51.7706453986" lon="-2.3725304659"><ele>14.08</ele><time>2011-11-16T11:12:46Z</time></trkpt><trkpt lat="51.7706448119" lon="-2.3725322261"><ele>13.60</ele><time>2011-11-16T11:12:56Z</time></trkpt><trkpt lat="51.7706448119" lon="-2.3725322261"><ele>13.60</ele><time>2011-11-16T11:13:08Z</time></trkpt><trkpt lat="51.7706907447" lon="-2.3724891432"><ele>13.60</ele><time>2011-11-16T11:13:21Z</time></trkpt><trkpt lat="51.7706907447" lon="-2.3724891432"><ele>14.08</ele><time>2011-11-16T11:13:34Z</time></trkpt><trkpt lat="51.7706907447" lon="-2.3724891432"><ele>14.08</ele><time>2011-11-16T11:13:45Z</time></trkpt><trkpt lat="51.7706907447" lon="-2.3724891432"><ele>14.08</ele><time>2011-11-16T11:13:57Z</time></trkpt><trkpt lat="51.7706790939" lon="-2.3724984471"><ele>14.08</ele><time>2011-11-16T11:14:09Z</time></trkpt><trkpt lat="51.7706790939" lon="-2.3724984471"><ele>14.08</ele><time>2011-11-16T11:14:23Z</time></trkpt><trkpt lat="51.7706560437" lon="-2.3725107685"><ele>13.60</ele><time>2011-11-16T11:14:29Z</time></trkpt><trkpt lat="51.7706541158" lon="-2.3725116067"><ele>13.60</ele><time>2011-11-16T11:14:40Z</time></trkpt><trkpt lat="51.7706773337" lon="-2.3724961840"><ele>13.60</ele><time>2011-11-16T11:14:48Z</time></trkpt><trkpt lat="51.7707205843" lon="-2.3724857904"><ele>13.60</ele><time>2011-11-16T11:14:53Z</time></trkpt><trkpt lat="51.7707645055" lon="-2.3724619020"><ele>13.60</ele><time>2011-11-16T11:14:58Z</time></trkpt><trkpt lat="51.7708543595" lon="-2.3724366724"><ele>13.12</ele><time>2011-11-16T11:15:06Z</time></trkpt><trkpt lat="51.7709470633" lon="-2.3724092636"><ele>13.60</ele><time>2011-11-16T11:15:13Z</time></trkpt><trkpt lat="51.7710520886" lon="-2.3723869678"><ele>14.08</ele><time>2011-11-16T11:15:21Z</time></trkpt><trkpt lat="51.7710963450" lon="-2.3723792564"><ele>13.12</ele><time>2011-11-16T11:15:25Z</time></trkpt><trkpt lat="51.7711201496" lon="-2.3723637499"><ele>13.60</ele><time>2011-11-16T11:15:27Z</time></trkpt><trkpt lat="51.7712133564" lon="-2.3723438010"><ele>13.60</ele><time>2011-11-16T11:15:36Z</time></trkpt><trkpt lat="51.7712897994" lon="-2.3723222595"><ele>13.12</ele><time>2011-11-16T11:15:43Z</time></trkpt><trkpt lat="51.7714344710" lon="-2.3722645920"><ele>14.08</ele><time>2011-11-16T11:15:53Z</time></trkpt><trkpt lat="51.7715103272" lon="-2.3722677771"><ele>14.08</ele><time>2011-11-16T11:15:59Z</time></trkpt><trkpt lat="51.7716071382" lon="-2.3722201679"><ele>13.60</ele><time>2011-11-16T11:16:06Z</time></trkpt><trkpt lat="51.7717084754" lon="-2.3721821140"><ele>14.08</ele><time>2011-11-16T11:16:14Z</time></trkpt><trkpt lat="51.7717181984" lon="-2.3721766658"><ele>14.08</ele><time>2011-11-16T11:16:15Z</time></trkpt><trkpt lat="51.7717397399" lon="-2.3721553758"><ele>13.60</ele><time>2011-11-16T11:16:17Z</time></trkpt><trkpt lat="51.7718766164" lon="-2.3720758315"><ele>13.60</ele><time>2011-11-16T11:16:28Z</time></trkpt><trkpt lat="51.7719671410" lon="-2.3720407952"><ele>14.08</ele><time>2011-11-16T11:16:35Z</time></trkpt><trkpt lat="51.7720695678" lon="-2.3719623405"><ele>13.60</ele><time>2011-11-16T11:16:43Z</time></trkpt><trkpt lat="51.7721134052" lon="-2.3719377816"><ele>14.08</ele><time>2011-11-16T11:16:46Z</time></trkpt><trkpt lat="51.7721991520" lon="-2.3718805332"><ele>14.08</ele><time>2011-11-16T11:16:54Z</time></trkpt><trkpt lat="51.7722862400" lon="-2.3718369473"><ele>14.08</ele><time>2011-11-16T11:17:02Z</time></trkpt><trkpt lat="51.7723500263" lon="-2.3717720713"><ele>14.08</ele><time>2011-11-16T11:17:10Z</time></trkpt><trkpt lat="51.7724215239" lon="-2.3717108835"><ele>14.08</ele><time>2011-11-16T11:17:15Z</time></trkpt><trkpt lat="51.7725441512" lon="-2.3715714924"><ele>14.08</ele><time>2011-11-16T11:17:26Z</time></trkpt><trkpt lat="51.7726431414" lon="-2.3714840692"><ele>14.08</ele><time>2011-11-16T11:17:35Z</time></trkpt><trkpt lat="51.7726926785" lon="-2.3714576662"><ele>14.08</ele><time>2011-11-16T11:17:40Z</time></trkpt><trkpt lat="51.7727801017" lon="-2.3713605199"><ele>14.08</ele><time>2011-11-16T11:17:48Z</time></trkpt><trkpt lat="51.7728488334" lon="-2.3712885194"><ele>14.08</ele><time>2011-11-16T11:17:56Z</time></trkpt><trkpt lat="51.7728857975" lon="-2.3712596856"><ele>13.60</ele><time>2011-11-16T11:18:00Z</time></trkpt><trkpt lat="51.7730090953" lon="-2.3711343762"><ele>13.60</ele><time>2011-11-16T11:18:09Z</time></trkpt><trkpt lat="51.7730846163" lon="-2.3710454442"><ele>13.60</ele><time>2011-11-16T11:18:16Z</time></trkpt><trkpt lat="51.7731911503" lon="-2.3709238227"><ele>13.60</ele><time>2011-11-16T11:18:26Z</time></trkpt><trkpt lat="51.7732708622" lon="-2.3708355613"><ele>14.08</ele><time>2011-11-16T11:18:34Z</time></trkpt><trkpt lat="51.7733163759" lon="-2.3707646504"><ele>13.60</ele><time>2011-11-16T11:18:39Z</time></trkpt><trkpt lat="51.7733767256" lon="-2.3706721980"><ele>14.08</ele><time>2011-11-16T11:18:46Z</time></trkpt><trkpt lat="51.7734571919" lon="-2.3705523368"><ele>13.60</ele><time>2011-11-16T11:18:54Z</time></trkpt><trkpt lat="51.7735425197" lon="-2.3704523407"><ele>14.08</ele><time>2011-11-16T11:19:02Z</time></trkpt><trkpt lat="51.7736187950" lon="-2.3703743052"><ele>14.08</ele><time>2011-11-16T11:19:09Z</time></trkpt><trkpt lat="51.7736291047" lon="-2.3703323957"><ele>14.08</ele><time>2011-11-16T11:19:11Z</time></trkpt><trkpt lat="51.7736825813" lon="-2.3702305555"><ele>14.08</ele><time>2011-11-16T11:19:17Z</time></trkpt><trkpt lat="51.7737710103" lon="-2.3700642586"><ele>14.08</ele><time>2011-11-16T11:19:27Z</time></trkpt><trkpt lat="51.7738422565" lon="-2.3699506000"><ele>14.08</ele><time>2011-11-16T11:19:34Z</time></trkpt><trkpt lat="51.7738850042" lon="-2.3698982131"><ele>13.60</ele><time>2011-11-16T11:19:38Z</time></trkpt><trkpt lat="51.7739298474" lon="-2.3698558006"><ele>13.12</ele><time>2011-11-16T11:19:43Z</time></trkpt><trkpt lat="51.7739768699" lon="-2.3697639350"><ele>13.60</ele><time>2011-11-16T11:19:49Z</time></trkpt><trkpt lat="51.7740109842" lon="-2.3696770146"><ele>13.60</ele><time>2011-11-16T11:19:53Z</time></trkpt><trkpt lat="51.7740852479" lon="-2.3695206922"><ele>14.08</ele><time>2011-11-16T11:20:02Z</time></trkpt><trkpt lat="51.7741518002" lon="-2.3693798762"><ele>13.12</ele><time>2011-11-16T11:20:11Z</time></trkpt><trkpt lat="51.7742099706" lon="-2.3692450952"><ele>13.60</ele><time>2011-11-16T11:20:19Z</time></trkpt><trkpt lat="51.7742529698" lon="-2.3691503797"><ele>13.60</ele><time>2011-11-16T11:20:27Z</time></trkpt><trkpt lat="51.7742526345" lon="-2.3691270780"><ele>13.60</ele><time>2011-11-16T11:20:37Z</time></trkpt><trkpt lat="51.7742675543" lon="-2.3690582626"><ele>14.08</ele><time>2011-11-16T11:20:45Z</time></trkpt><trkpt lat="51.7743089609" lon="-2.3689633794"><ele>13.60</ele><time>2011-11-16T11:20:54Z</time></trkpt><trkpt lat="51.7743089609" lon="-2.3689633794"><ele>13.60</ele><time>2011-11-16T11:21:01Z</time></trkpt><trkpt lat="51.7743089609" lon="-2.3689633794"><ele>13.60</ele><time>2011-11-16T11:21:16Z</time></trkpt><trkpt lat="51.7743089609" lon="-2.3689633794"><ele>13.60</ele><time>2011-11-16T11:21:27Z</time></trkpt><trkpt lat="51.7743092123" lon="-2.3689633794"><ele>13.60</ele><time>2011-11-16T11:21:40Z</time></trkpt><trkpt lat="51.7743092123" lon="-2.3689633794"><ele>13.12</ele><time>2011-11-16T11:21:56Z</time></trkpt><trkpt lat="51.7743097153" lon="-2.3689630441"><ele>13.60</ele><time>2011-11-16T11:22:13Z</time></trkpt><trkpt lat="51.7743097153" lon="-2.3689630441"><ele>13.60</ele><time>2011-11-16T11:22:21Z</time></trkpt><trkpt lat="51.7743057758" lon="-2.3689448554"><ele>13.60</ele><time>2011-11-16T11:22:31Z</time></trkpt><trkpt lat="51.7743057758" lon="-2.3689448554"><ele>13.60</ele><time>2011-11-16T11:22:41Z</time></trkpt><trkpt lat="51.7743057758" lon="-2.3689448554"><ele>13.12</ele><time>2011-11-16T11:22:44Z</time></trkpt><trkpt lat="51.7743528821" lon="-2.3688989226"><ele>13.12</ele><time>2011-11-16T11:22:51Z</time></trkpt><trkpt lat="51.7743831407" lon="-2.3688685801"><ele>13.12</ele><time>2011-11-16T11:23:02Z</time></trkpt><trkpt lat="51.7744398862" lon="-2.3687400855"><ele>12.63</ele><time>2011-11-16T11:23:10Z</time></trkpt><trkpt lat="51.7744628526" lon="-2.3686987627"><ele>13.12</ele><time>2011-11-16T11:23:13Z</time></trkpt><trkpt lat="51.7744902615" lon="-2.3686506506"><ele>13.60</ele><time>2011-11-16T11:23:21Z</time></trkpt><trkpt lat="51.7744887527" lon="-2.3686420172"><ele>13.60</ele><time>2011-11-16T11:23:30Z</time></trkpt><trkpt lat="51.7745004874" lon="-2.3686312046"><ele>13.12</ele><time>2011-11-16T11:23:36Z</time></trkpt><trkpt lat="51.7745217774" lon="-2.3685850203"><ele>13.60</ele><time>2011-11-16T11:23:39Z</time></trkpt><trkpt lat="51.7745775171" lon="-2.3684796598"><ele>13.12</ele><time>2011-11-16T11:23:48Z</time></trkpt><trkpt lat="51.7746044230" lon="-2.3684349004"><ele>13.12</ele><time>2011-11-16T11:23:53Z</time></trkpt><trkpt lat="51.7746651080" lon="-2.3683584575"><ele>13.12</ele><time>2011-11-16T11:24:00Z</time></trkpt><trkpt lat="51.7746651080" lon="-2.3683584575"><ele>21.77</ele><time>2011-11-16T11:24:01Z</time></trkpt><trkpt lat="51.7746900860" lon="-2.3683245946"><ele>13.12</ele><time>2011-11-16T11:24:05Z</time></trkpt><trkpt lat="51.7747799400" lon="-2.3681463953"><ele>13.60</ele><time>2011-11-16T11:24:15Z</time></trkpt><trkpt lat="51.7748407926" lon="-2.3680103570"><ele>13.12</ele><time>2011-11-16T11:24:22Z</time></trkpt><trkpt lat="51.7748492584" lon="-2.3679898214"><ele>13.60</ele><time>2011-11-16T11:24:23Z</time></trkpt><trkpt lat="51.7749022320" lon="-2.3678872269"><ele>13.12</ele><time>2011-11-16T11:24:29Z</time></trkpt><trkpt lat="51.7749671917" lon="-2.3677087761"><ele>13.60</ele><time>2011-11-16T11:24:38Z</time></trkpt><trkpt lat="51.7750023957" lon="-2.3676657770"><ele>13.12</ele><time>2011-11-16T11:24:42Z</time></trkpt><trkpt lat="51.7750777490" lon="-2.3674998991"><ele>13.60</ele><time>2011-11-16T11:24:52Z</time></trkpt><trkpt lat="51.7751515936" lon="-2.3673742544"><ele>13.12</ele><time>2011-11-16T11:25:00Z</time></trkpt><trkpt lat="51.7751851212" lon="-2.3672878370"><ele>13.12</ele><time>2011-11-16T11:25:04Z</time></trkpt><trkpt lat="51.7752536014" lon="-2.3671727534"><ele>13.60</ele><time>2011-11-16T11:25:11Z</time></trkpt><trkpt lat="51.7752907332" lon="-2.3670612741"><ele>13.60</ele><time>2011-11-16T11:25:16Z</time></trkpt><trkpt lat="51.7753528431" lon="-2.3669774551"><ele>13.60</ele><time>2011-11-16T11:25:23Z</time></trkpt><trkpt lat="51.7753860354" lon="-2.3669320252"><ele>13.60</ele><time>2011-11-16T11:25:27Z</time></trkpt><trkpt lat="51.7754437868" lon="-2.3667996749"><ele>13.60</ele><time>2011-11-16T11:25:34Z</time></trkpt><trkpt lat="51.7754762247" lon="-2.3667181190"><ele>13.60</ele><time>2011-11-16T11:25:38Z</time></trkpt><trkpt lat="51.7755457107" lon="-2.3665711842"><ele>13.12</ele><time>2011-11-16T11:25:47Z</time></trkpt><trkpt lat="51.7756063119" lon="-2.3664379958"><ele>13.12</ele><time>2011-11-16T11:25:55Z</time></trkpt><trkpt lat="51.7756322119" lon="-2.3663777299"><ele>13.60</ele><time>2011-11-16T11:25:58Z</time></trkpt><trkpt lat="51.7756737862" lon="-2.3662652448"><ele>13.60</ele><time>2011-11-16T11:26:03Z</time></trkpt><trkpt lat="51.7757186294" lon="-2.3661211599"><ele>13.12</ele><time>2011-11-16T11:26:09Z</time></trkpt><trkpt lat="51.7757819965" lon="-2.3660174757"><ele>12.63</ele><time>2011-11-16T11:26:17Z</time></trkpt><trkpt lat="51.7758296058" lon="-2.3658035696"><ele>13.12</ele><time>2011-11-16T11:26:27Z</time></trkpt><trkpt lat="51.7758894525" lon="-2.3656823672"><ele>13.12</ele><time>2011-11-16T11:26:35Z</time></trkpt><trkpt lat="51.7759495508" lon="-2.3655395396"><ele>14.08</ele><time>2011-11-16T11:26:43Z</time></trkpt><trkpt lat="51.7760016862" lon="-2.3654509429"><ele>13.60</ele><time>2011-11-16T11:26:50Z</time></trkpt><trkpt lat="51.7760291789" lon="-2.3653879110"><ele>13.60</ele><time>2011-11-16T11:26:54Z</time></trkpt><trkpt lat="51.7760860920" lon="-2.3652180936"><ele>14.08</ele><time>2011-11-16T11:27:03Z</time></trkpt><trkpt lat="51.7761508841" lon="-2.3650750984"><ele>13.60</ele><time>2011-11-16T11:27:12Z</time></trkpt><trkpt lat="51.7762108147" lon="-2.3649616074"><ele>14.08</ele><time>2011-11-16T11:27:20Z</time></trkpt><trkpt lat="51.7762892693" lon="-2.3648351245"><ele>13.60</ele><time>2011-11-16T11:27:29Z</time></trkpt><trkpt lat="51.7763504572" lon="-2.3647081386"><ele>14.08</ele><time>2011-11-16T11:27:38Z</time></trkpt><trkpt lat="51.7764149141" lon="-2.3645778839"><ele>14.08</ele><time>2011-11-16T11:27:47Z</time></trkpt><trkpt lat="51.7764781136" lon="-2.3644366488"><ele>14.08</ele><time>2011-11-16T11:27:56Z</time></trkpt><trkpt lat="51.7765363678" lon="-2.3642991856"><ele>14.08</ele><time>2011-11-16T11:28:05Z</time></trkpt><trkpt lat="51.7765958793" lon="-2.3641716968"><ele>14.56</ele><time>2011-11-16T11:28:14Z</time></trkpt><trkpt lat="51.7766633537" lon="-2.3640463874"><ele>14.56</ele><time>2011-11-16T11:28:23Z</time></trkpt><trkpt lat="51.7767151538" lon="-2.3639519233"><ele>14.08</ele><time>2011-11-16T11:28:30Z</time></trkpt><trkpt lat="51.7767782696" lon="-2.3638339899"><ele>13.60</ele><time>2011-11-16T11:28:38Z</time></trkpt><trkpt lat="51.7767883278" lon="-2.3638092633"><ele>14.08</ele><time>2011-11-16T11:28:40Z</time></trkpt><trkpt lat="51.7768508568" lon="-2.3636679444"><ele>14.08</ele><time>2011-11-16T11:28:49Z</time></trkpt><trkpt lat="51.7769128829" lon="-2.3635243624"><ele>14.56</ele><time>2011-11-16T11:28:59Z</time></trkpt><trkpt lat="51.7769871466" lon="-2.3633789364"><ele>14.08</ele><time>2011-11-16T11:29:10Z</time></trkpt><trkpt lat="51.7770412099" lon="-2.3632641044"><ele>14.56</ele><time>2011-11-16T11:29:18Z</time></trkpt><trkpt lat="51.7770706303" lon="-2.3631786089"><ele>15.04</ele><time>2011-11-16T11:29:24Z</time></trkpt><trkpt lat="51.7771355063" lon="-2.3630151618"><ele>14.08</ele><time>2011-11-16T11:29:33Z</time></trkpt><trkpt lat="51.7771927547" lon="-2.3628763575"><ele>14.56</ele><time>2011-11-16T11:29:42Z</time></trkpt><trkpt lat="51.7772438005" lon="-2.3627735116"><ele>14.56</ele><time>2011-11-16T11:29:50Z</time></trkpt><trkpt lat="51.7772629950" lon="-2.3627247289"><ele>14.08</ele><time>2011-11-16T11:29:57Z</time></trkpt><trkpt lat="51.7772900686" lon="-2.3626866750"><ele>14.56</ele><time>2011-11-16T11:30:04Z</time></trkpt><trkpt lat="51.7772771604" lon="-2.3626825679"><ele>14.56</ele><time>2011-11-16T11:30:15Z</time></trkpt><trkpt lat="51.7773283739" lon="-2.3626221344"><ele>14.56</ele><time>2011-11-16T11:30:22Z</time></trkpt><trkpt lat="51.7774047330" lon="-2.3625214677"><ele>14.08</ele><time>2011-11-16T11:30:29Z</time></trkpt><trkpt lat="51.7774379253" lon="-2.3624776304"><ele>14.56</ele><time>2011-11-16T11:30:33Z</time></trkpt><trkpt lat="51.7774620652" lon="-2.3624365591"><ele>14.56</ele><time>2011-11-16T11:30:36Z</time></trkpt><trkpt lat="51.7774841934" lon="-2.3623726051"><ele>14.56</ele><time>2011-11-16T11:30:40Z</time></trkpt><trkpt lat="51.7775390111" lon="-2.3623063043"><ele>14.08</ele><time>2011-11-16T11:30:45Z</time></trkpt><trkpt lat="51.7775706109" lon="-2.3622597009"><ele>14.08</ele><time>2011-11-16T11:30:48Z</time></trkpt><trkpt lat="51.7776523344" lon="-2.3621300329"><ele>14.56</ele><time>2011-11-16T11:30:57Z</time></trkpt><trkpt lat="51.7777030449" lon="-2.3620269354"><ele>14.08</ele><time>2011-11-16T11:31:04Z</time></trkpt><trkpt lat="51.7777107563" lon="-2.3620121833"><ele>14.56</ele><time>2011-11-16T11:31:05Z</time></trkpt><trkpt lat="51.7777259275" lon="-2.3619371653"><ele>14.08</ele><time>2011-11-16T11:31:10Z</time></trkpt><trkpt lat="51.7777625564" lon="-2.3618406896"><ele>14.08</ele><time>2011-11-16T11:31:18Z</time></trkpt><trkpt lat="51.7777625564" lon="-2.3618406896"><ele>14.56</ele><time>2011-11-16T11:31:30Z</time></trkpt><trkpt lat="51.7777625564" lon="-2.3618406896"><ele>14.08</ele><time>2011-11-16T11:31:41Z</time></trkpt><trkpt lat="51.7777930666" lon="-2.3617596366"><ele>13.60</ele><time>2011-11-16T11:31:48Z</time></trkpt><trkpt lat="51.7778381612" lon="-2.3616494983"><ele>14.08</ele><time>2011-11-16T11:31:55Z</time></trkpt><trkpt lat="51.7778656539" lon="-2.3616015539"><ele>13.60</ele><time>2011-11-16T11:31:59Z</time></trkpt><trkpt lat="51.7779321223" lon="-2.3614371847"><ele>13.60</ele><time>2011-11-16T11:32:09Z</time></trkpt><trkpt lat="51.7779907957" lon="-2.3613123782"><ele>13.60</ele><time>2011-11-16T11:32:17Z</time></trkpt><trkpt lat="51.7780119181" lon="-2.3612631764"><ele>13.12</ele><time>2011-11-16T11:32:20Z</time></trkpt><trkpt lat="51.7780834157" lon="-2.3611312453"><ele>14.08</ele><time>2011-11-16T11:32:29Z</time></trkpt><trkpt lat="51.7781470343" lon="-2.3610063549"><ele>13.60</ele><time>2011-11-16T11:32:38Z</time></trkpt><trkpt lat="51.7782041151" lon="-2.3608766031"><ele>14.56</ele><time>2011-11-16T11:32:46Z</time></trkpt><trkpt lat="51.7782550771" lon="-2.3607370444"><ele>14.08</ele><time>2011-11-16T11:32:55Z</time></trkpt><trkpt lat="51.7782699969" lon="-2.3606938776"><ele>14.08</ele><time>2011-11-16T11:32:58Z</time></trkpt><trkpt lat="51.7782901134" lon="-2.3606304266"><ele>14.56</ele><time>2011-11-16T11:33:02Z</time></trkpt><trkpt lat="51.7783229705" lon="-2.3605285026"><ele>14.08</ele><time>2011-11-16T11:33:09Z</time></trkpt><trkpt lat="51.7783897743" lon="-2.3604035284"><ele>14.08</ele><time>2011-11-16T11:33:17Z</time></trkpt><trkpt lat="51.7784714140" lon="-2.3602309451"><ele>14.08</ele><time>2011-11-16T11:33:28Z</time></trkpt><trkpt lat="51.7784771975" lon="-2.3602136783"><ele>14.08</ele><time>2011-11-16T11:33:29Z</time></trkpt><trkpt lat="51.7785471026" lon="-2.3600490578"><ele>14.08</ele><time>2011-11-16T11:33:40Z</time></trkpt><trkpt lat="51.7785773613" lon="-2.3599377461"><ele>14.56</ele><time>2011-11-16T11:33:47Z</time></trkpt><trkpt lat="51.7786105536" lon="-2.3598606326"><ele>14.56</ele><time>2011-11-16T11:33:53Z</time></trkpt><trkpt lat="51.7786391359" lon="-2.3598206509"><ele>14.08</ele><time>2011-11-16T11:33:57Z</time></trkpt><trkpt lat="51.7786808778" lon="-2.3597587086"><ele>14.08</ele><time>2011-11-16T11:34:03Z</time></trkpt><trkpt lat="51.7787258886" lon="-2.3596531805"><ele>14.08</ele><time>2011-11-16T11:34:11Z</time></trkpt><trkpt lat="51.7787646130" lon="-2.3595753964"><ele>14.56</ele><time>2011-11-16T11:34:19Z</time></trkpt><trkpt lat="51.7787769344" lon="-2.3595521785"><ele>14.56</ele><time>2011-11-16T11:34:27Z</time></trkpt><trkpt lat="51.7787889205" lon="-2.3595313914"><ele>14.56</ele><time>2011-11-16T11:34:29Z</time></trkpt><trkpt lat="51.7788555566" lon="-2.3594090156"><ele>14.08</ele><time>2011-11-16T11:34:38Z</time></trkpt><trkpt lat="51.7788939457" lon="-2.3593220953"><ele>14.08</ele><time>2011-11-16T11:34:44Z</time></trkpt><trkpt lat="51.7789510265" lon="-2.3592164833"><ele>14.08</ele><time>2011-11-16T11:34:52Z</time></trkpt><trkpt lat="51.7790019047" lon="-2.3590557184"><ele>14.08</ele><time>2011-11-16T11:35:01Z</time></trkpt><trkpt lat="51.7790577281" lon="-2.3588475119"><ele>13.60</ele><time>2011-11-16T11:35:11Z</time></trkpt><trkpt lat="51.7791085225" lon="-2.3587166704"><ele>14.08</ele><time>2011-11-16T11:35:19Z</time></trkpt><trkpt lat="51.7791604064" lon="-2.3586287443"><ele>14.56</ele><time>2011-11-16T11:35:28Z</time></trkpt><trkpt lat="51.7791604064" lon="-2.3586287443"><ele>14.56</ele><time>2011-11-16T11:35:40Z</time></trkpt><trkpt lat="51.7791604064" lon="-2.3586287443"><ele>14.08</ele><time>2011-11-16T11:35:58Z</time></trkpt><trkpt lat="51.7791609094" lon="-2.3586289957"><ele>14.08</ele><time>2011-11-16T11:36:11Z</time></trkpt><trkpt lat="51.7791629210" lon="-2.3586293310"><ele>14.08</ele><time>2011-11-16T11:36:21Z</time></trkpt><trkpt lat="51.7791643459" lon="-2.3586214520"><ele>14.08</ele><time>2011-11-16T11:36:31Z</time></trkpt><trkpt lat="51.7791652679" lon="-2.3586162552"><ele>14.08</ele><time>2011-11-16T11:36:40Z</time></trkpt><trkpt lat="51.7791767512" lon="-2.3585905228"><ele>14.08</ele><time>2011-11-16T11:36:42Z</time></trkpt><trkpt lat="51.7792178225" lon="-2.3584899399"><ele>14.08</ele><time>2011-11-16T11:36:49Z</time></trkpt><trkpt lat="51.7792501766" lon="-2.3583853338"><ele>14.08</ele><time>2011-11-16T11:36:57Z</time></trkpt><trkpt lat="51.7792955227" lon="-2.3583361320"><ele>13.60</ele><time>2011-11-16T11:37:03Z</time></trkpt><trkpt lat="51.7793743126" lon="-2.3581971601"><ele>13.60</ele><time>2011-11-16T11:37:12Z</time></trkpt><trkpt lat="51.7793940939" lon="-2.3581596930"><ele>14.08</ele><time>2011-11-16T11:37:15Z</time></trkpt><trkpt lat="51.7794251069" lon="-2.3581353854"><ele>13.12</ele><time>2011-11-16T11:37:18Z</time></trkpt><trkpt lat="51.7795043159" lon="-2.3579581920"><ele>13.60</ele><time>2011-11-16T11:37:28Z</time></trkpt><trkpt lat="51.7795855366" lon="-2.3578031268"><ele>14.56</ele><time>2011-11-16T11:37:38Z</time></trkpt><trkpt lat="51.7796535976" lon="-2.3577138595"><ele>14.56</ele><time>2011-11-16T11:37:45Z</time></trkpt><trkpt lat="51.7797461338" lon="-2.3575841915"><ele>14.08</ele><time>2011-11-16T11:37:55Z</time></trkpt><trkpt lat="51.7798261810" lon="-2.3574732151"><ele>13.60</ele><time>2011-11-16T11:38:05Z</time></trkpt><trkpt lat="51.7799060605" lon="-2.3573764041"><ele>13.60</ele><time>2011-11-16T11:38:14Z</time></trkpt><trkpt lat="51.7800029553" lon="-2.3572443053"><ele>13.60</ele><time>2011-11-16T11:38:25Z</time></trkpt><trkpt lat="51.7800788116" lon="-2.3571600672"><ele>13.60</ele><time>2011-11-16T11:38:34Z</time></trkpt><trkpt lat="51.7801472079" lon="-2.3570713867"><ele>13.12</ele><time>2011-11-16T11:38:42Z</time></trkpt><trkpt lat="51.7802264169" lon="-2.3569904175"><ele>13.12</ele><time>2011-11-16T11:38:51Z</time></trkpt><trkpt lat="51.7802533228" lon="-2.3569604941"><ele>13.12</ele><time>2011-11-16T11:38:54Z</time></trkpt><trkpt lat="51.7803493794" lon="-2.3568859790"><ele>13.12</ele><time>2011-11-16T11:39:03Z</time></trkpt><trkpt lat="51.7804345395" lon="-2.3567885812"><ele>13.12</ele><time>2011-11-16T11:39:11Z</time></trkpt><trkpt lat="51.7805345356" lon="-2.3567055166"><ele>13.12</ele><time>2011-11-16T11:39:20Z</time></trkpt><trkpt lat="51.7806248926" lon="-2.3566395510"><ele>12.63</ele><time>2011-11-16T11:39:29Z</time></trkpt><trkpt lat="51.7807073705" lon="-2.3565635271"><ele>12.63</ele><time>2011-11-16T11:39:38Z</time></trkpt><trkpt lat="51.7807966378" lon="-2.3564834800"><ele>12.63</ele><time>2011-11-16T11:39:48Z</time></trkpt><trkpt lat="51.7808658723" lon="-2.3564122338"><ele>13.12</ele><time>2011-11-16T11:39:56Z</time></trkpt><trkpt lat="51.7809384596" lon="-2.3563562427"><ele>13.12</ele><time>2011-11-16T11:40:04Z</time></trkpt><trkpt lat="51.7810369469" lon="-2.3562986590"><ele>12.15</ele><time>2011-11-16T11:40:13Z</time></trkpt><trkpt lat="51.7811013199" lon="-2.3562527262"><ele>12.15</ele><time>2011-11-16T11:40:20Z</time></trkpt><trkpt lat="51.7812003940" lon="-2.3561974056"><ele>12.15</ele><time>2011-11-16T11:40:29Z</time></trkpt><trkpt lat="51.7812972050" lon="-2.3561294284"><ele>12.15</ele><time>2011-11-16T11:40:38Z</time></trkpt><trkpt lat="51.7814031523" lon="-2.3560605291"><ele>12.63</ele><time>2011-11-16T11:40:47Z</time></trkpt><trkpt lat="51.7815099377" lon="-2.3559726030"><ele>12.15</ele><time>2011-11-16T11:40:56Z</time></trkpt><trkpt lat="51.7815815192" lon="-2.3558954056"><ele>11.67</ele><time>2011-11-16T11:41:04Z</time></trkpt><trkpt lat="51.7816405278" lon="-2.3558079824"><ele>12.15</ele><time>2011-11-16T11:41:11Z</time></trkpt><trkpt lat="51.7816669308" lon="-2.3557405081"><ele>12.15</ele><time>2011-11-16T11:41:19Z</time></trkpt><trkpt lat="51.7816818506" lon="-2.3557172064"><ele>12.63</ele><time>2011-11-16T11:41:26Z</time></trkpt><trkpt lat="51.7816818506" lon="-2.3557172064"><ele>12.63</ele><time>2011-11-16T11:41:28Z</time></trkpt><trkpt lat="51.7817528453" lon="-2.3555573635"><ele>12.63</ele><time>2011-11-16T11:41:38Z</time></trkpt><trkpt lat="51.7818064056" lon="-2.3553867918"><ele>12.15</ele><time>2011-11-16T11:41:47Z</time></trkpt><trkpt lat="51.7818517517" lon="-2.3552690260"><ele>12.15</ele><time>2011-11-16T11:41:55Z</time></trkpt><trkpt lat="51.7818517517" lon="-2.3552690260"><ele>12.15</ele><time>2011-11-16T11:42:08Z</time></trkpt><trkpt lat="51.7818517517" lon="-2.3552690260"><ele>2.06</ele><time>2011-11-16T11:42:17Z</time></trkpt><trkpt lat="51.7818517517" lon="-2.3552690260"><ele>14.56</ele><time>2011-11-16T11:42:18Z</time></trkpt><trkpt lat="51.7818517517" lon="-2.3552690260"><ele>12.15</ele><time>2011-11-16T11:42:26Z</time></trkpt><trkpt lat="51.7818174697" lon="-2.3552471492"><ele>12.15</ele><time>2011-11-16T11:42:33Z</time></trkpt><trkpt lat="51.7818216607" lon="-2.3552400246"><ele>11.67</ele><time>2011-11-16T11:42:47Z</time></trkpt><trkpt lat="51.7818966787" lon="-2.3551739752"><ele>12.15</ele><time>2011-11-16T11:42:56Z</time></trkpt><trkpt lat="51.7819929030" lon="-2.3550396133"><ele>12.15</ele><time>2011-11-16T11:43:06Z</time></trkpt><trkpt lat="51.7820049729" lon="-2.3550262023"><ele>12.63</ele><time>2011-11-16T11:43:13Z</time></trkpt><trkpt lat="51.7820111755" lon="-2.3550215084"><ele>12.15</ele><time>2011-11-16T11:43:20Z</time></trkpt><trkpt lat="51.7820698489" lon="-2.3549633380"><ele>11.67</ele><time>2011-11-16T11:43:28Z</time></trkpt><trkpt lat="51.7820737045" lon="-2.3549393658"><ele>12.15</ele><time>2011-11-16T11:43:36Z</time></trkpt><trkpt lat="51.7820737045" lon="-2.3549393658"><ele>12.15</ele><time>2011-11-16T11:43:54Z</time></trkpt><trkpt lat="51.7820737045" lon="-2.3549393658"><ele>12.15</ele><time>2011-11-16T11:44:07Z</time></trkpt><trkpt lat="51.7820781469" lon="-2.3549371026"><ele>12.15</ele><time>2011-11-16T11:44:27Z</time></trkpt><trkpt lat="51.7820781469" lon="-2.3549371026"><ele>11.67</ele><time>2011-11-16T11:44:40Z</time></trkpt><trkpt lat="51.7821001075" lon="-2.3548811115"><ele>12.15</ele><time>2011-11-16T11:44:53Z</time></trkpt><trkpt lat="51.7820814159" lon="-2.3547821213"><ele>11.19</ele><time>2011-11-16T11:44:59Z</time></trkpt><trkpt lat="51.7820380814" lon="-2.3546740785"><ele>12.15</ele><time>2011-11-16T11:45:08Z</time></trkpt><trkpt lat="51.7820304539" lon="-2.3546518665"><ele>12.15</ele><time>2011-11-16T11:45:14Z</time></trkpt><trkpt lat="51.7819941603" lon="-2.3546188418"><ele>12.63</ele><time>2011-11-16T11:45:21Z</time></trkpt><trkpt lat="51.7819436174" lon="-2.3545605037"><ele>12.15</ele><time>2011-11-16T11:45:29Z</time></trkpt><trkpt lat="51.7819181364" lon="-2.3545339331"><ele>12.15</ele><time>2011-11-16T11:45:39Z</time></trkpt><trkpt lat="51.7818738800" lon="-2.3545009922"><ele>12.15</ele><time>2011-11-16T11:45:43Z</time></trkpt><trkpt lat="51.7818107642" lon="-2.3544486053"><ele>12.15</ele><time>2011-11-16T11:45:50Z</time></trkpt><trkpt lat="51.7817846127" lon="-2.3544040974"><ele>11.67</ele><time>2011-11-16T11:45:58Z</time></trkpt><trkpt lat="51.7817611434" lon="-2.3543602601"><ele>11.67</ele><time>2011-11-16T11:46:06Z</time></trkpt><trkpt lat="51.7817238439" lon="-2.3542964738"><ele>11.67</ele><time>2011-11-16T11:46:13Z</time></trkpt><trkpt lat="51.7816834431" lon="-2.3542278260"><ele>11.67</ele><time>2011-11-16T11:46:19Z</time></trkpt><trkpt lat="51.7816631589" lon="-2.3541918676"><ele>11.67</ele><time>2011-11-16T11:46:26Z</time></trkpt><trkpt lat="51.7816364206" lon="-2.3541496228"><ele>11.67</ele><time>2011-11-16T11:46:34Z</time></trkpt><trkpt lat="51.7816180643" lon="-2.3540988285"><ele>11.67</ele><time>2011-11-16T11:46:39Z</time></trkpt><trkpt lat="51.7815757357" lon="-2.3539966531"><ele>11.67</ele><time>2011-11-16T11:46:46Z</time></trkpt><trkpt lat="51.7815671023" lon="-2.3539637960"><ele>11.67</ele><time>2011-11-16T11:46:51Z</time></trkpt><trkpt lat="51.7815353349" lon="-2.3538920470"><ele>11.19</ele><time>2011-11-16T11:46:58Z</time></trkpt><trkpt lat="51.7814993765" lon="-2.3538158555"><ele>11.19</ele><time>2011-11-16T11:47:06Z</time></trkpt><trkpt lat="51.7814931739" lon="-2.3538092338"><ele>11.19</ele><time>2011-11-16T11:47:13Z</time></trkpt><trkpt lat="51.7814598139" lon="-2.3537506443"><ele>11.67</ele><time>2011-11-16T11:47:20Z</time></trkpt><trkpt lat="51.7814598139" lon="-2.3537506443"><ele>10.71</ele><time>2011-11-16T11:47:32Z</time></trkpt><trkpt lat="51.7813999671" lon="-2.3536543362"><ele>10.71</ele><time>2011-11-16T11:47:40Z</time></trkpt><trkpt lat="51.7813382763" lon="-2.3535803240"><ele>11.19</ele><time>2011-11-16T11:47:47Z</time></trkpt><trkpt lat="51.7812827881" lon="-2.3535236623"><ele>10.71</ele><time>2011-11-16T11:47:53Z</time></trkpt><trkpt lat="51.7812401243" lon="-2.3534850217"><ele>10.71</ele><time>2011-11-16T11:48:00Z</time></trkpt><trkpt lat="51.7812283058" lon="-2.3534610495"><ele>11.19</ele><time>2011-11-16T11:48:08Z</time></trkpt><trkpt lat="51.7811723147" lon="-2.3534079082"><ele>10.71</ele><time>2011-11-16T11:48:15Z</time></trkpt><trkpt lat="51.7810366116" lon="-2.3532872088"><ele>10.71</ele><time>2011-11-16T11:48:26Z</time></trkpt><trkpt lat="51.7809624318" lon="-2.3532375041"><ele>10.71</ele><time>2011-11-16T11:48:33Z</time></trkpt><trkpt lat="51.7809045129" lon="-2.3531915713"><ele>10.71</ele><time>2011-11-16T11:48:40Z</time></trkpt><trkpt lat="51.7808620166" lon="-2.3531586304"><ele>10.23</ele><time>2011-11-16T11:48:48Z</time></trkpt><trkpt lat="51.7808097135" lon="-2.3531485721"><ele>10.71</ele><time>2011-11-16T11:48:55Z</time></trkpt><trkpt lat="51.7807551473" lon="-2.3531157151"><ele>10.71</ele><time>2011-11-16T11:49:03Z</time></trkpt><trkpt lat="51.7807037663" lon="-2.3530769069"><ele>10.23</ele><time>2011-11-16T11:49:11Z</time></trkpt><trkpt lat="51.7806170136" lon="-2.3530280404"><ele>10.71</ele><time>2011-11-16T11:49:21Z</time></trkpt><trkpt lat="51.7805930413" lon="-2.3530039005"><ele>10.71</ele><time>2011-11-16T11:49:24Z</time></trkpt><trkpt lat="51.7805280816" lon="-2.3529591411"><ele>10.23</ele><time>2011-11-16T11:49:32Z</time></trkpt><trkpt lat="51.7804710846" lon="-2.3529296368"><ele>10.71</ele><time>2011-11-16T11:49:39Z</time></trkpt><trkpt lat="51.7803946417" lon="-2.3528924212"><ele>10.71</ele><time>2011-11-16T11:49:47Z</time></trkpt><trkpt lat="51.7803430930" lon="-2.3528538644"><ele>10.71</ele><time>2011-11-16T11:49:53Z</time></trkpt><trkpt lat="51.7803183664" lon="-2.3528384417"><ele>10.71</ele><time>2011-11-16T11:50:01Z</time></trkpt><trkpt lat="51.7802840006" lon="-2.3528087698"><ele>10.23</ele><time>2011-11-16T11:50:12Z</time></trkpt><trkpt lat="51.7802177835" lon="-2.3527652677"><ele>10.71</ele><time>2011-11-16T11:50:20Z</time></trkpt><trkpt lat="51.7801893689" lon="-2.3527557962"><ele>10.71</ele><time>2011-11-16T11:50:23Z</time></trkpt><trkpt lat="51.7800611258" lon="-2.3526975419"><ele>10.71</ele><time>2011-11-16T11:50:33Z</time></trkpt><trkpt lat="51.7800422665" lon="-2.3526868969"><ele>10.71</ele><time>2011-11-16T11:50:35Z</time></trkpt><trkpt lat="51.7799801566" lon="-2.3526345938"><ele>10.71</ele><time>2011-11-16T11:50:41Z</time></trkpt><trkpt lat="51.7798817530" lon="-2.3525745794"><ele>10.71</ele><time>2011-11-16T11:50:50Z</time></trkpt><trkpt lat="51.7798058968" lon="-2.3525356036"><ele>10.71</ele><time>2011-11-16T11:50:57Z</time></trkpt><trkpt lat="51.7797887139" lon="-2.3525262158"><ele>10.71</ele><time>2011-11-16T11:51:01Z</time></trkpt><trkpt lat="51.7797309626" lon="-2.3524927720"><ele>10.71</ele><time>2011-11-16T11:51:08Z</time></trkpt><trkpt lat="51.7796681821" lon="-2.3524755053"><ele>10.23</ele><time>2011-11-16T11:51:15Z</time></trkpt><trkpt lat="51.7795751430" lon="-2.3524191789"><ele>10.23</ele><time>2011-11-16T11:51:23Z</time></trkpt><trkpt lat="51.7794818524" lon="-2.3523679655"><ele>10.23</ele><time>2011-11-16T11:51:31Z</time></trkpt><trkpt lat="51.7793702055" lon="-2.3523377907"><ele>10.23</ele><time>2011-11-16T11:51:40Z</time></trkpt><trkpt lat="51.7792914156" lon="-2.3523035925"><ele>9.75</ele><time>2011-11-16T11:51:48Z</time></trkpt><trkpt lat="51.7791918386" lon="-2.3522387166"><ele>10.23</ele><time>2011-11-16T11:51:56Z</time></trkpt><trkpt lat="51.7791013140" lon="-2.3521840665"><ele>10.23</ele><time>2011-11-16T11:52:05Z</time></trkpt><trkpt lat="51.7790231109" lon="-2.3521295004"><ele>10.23</ele><time>2011-11-16T11:52:13Z</time></trkpt><trkpt lat="51.7789663654" lon="-2.3520868365"><ele>10.23</ele><time>2011-11-16T11:52:20Z</time></trkpt><trkpt lat="51.7788654473" lon="-2.3520362098"><ele>9.75</ele><time>2011-11-16T11:52:30Z</time></trkpt><trkpt lat="51.7787540518" lon="-2.3520119861"><ele>10.23</ele><time>2011-11-16T11:52:40Z</time></trkpt><trkpt lat="51.7786690593" lon="-2.3519438412"><ele>9.75</ele><time>2011-11-16T11:52:49Z</time></trkpt><trkpt lat="51.7785887606" lon="-2.3518872634"><ele>10.71</ele><time>2011-11-16T11:52:58Z</time></trkpt><trkpt lat="51.7785118986" lon="-2.3518901132"><ele>10.71</ele><time>2011-11-16T11:53:07Z</time></trkpt><trkpt lat="51.7784925364" lon="-2.3518875148"><ele>10.71</ele><time>2011-11-16T11:53:15Z</time></trkpt><trkpt lat="51.7784925364" lon="-2.3518875148"><ele>10.71</ele><time>2011-11-16T11:53:24Z</time></trkpt><trkpt lat="51.7784925364" lon="-2.3518875148"><ele>10.71</ele><time>2011-11-16T11:53:35Z</time></trkpt><trkpt lat="51.7784883454" lon="-2.3518885206"><ele>10.23</ele><time>2011-11-16T11:53:45Z</time></trkpt><trkpt lat="51.7784668040" lon="-2.3518905323"><ele>10.23</ele><time>2011-11-16T11:53:52Z</time></trkpt><trkpt lat="51.7784584220" lon="-2.3518918734"><ele>10.71</ele><time>2011-11-16T11:54:01Z</time></trkpt><trkpt lat="51.7784497049" lon="-2.3518929631"><ele>10.71</ele><time>2011-11-16T11:54:13Z</time></trkpt><trkpt lat="51.7784323543" lon="-2.3519789614"><ele>10.23</ele><time>2011-11-16T11:54:22Z</time></trkpt><trkpt lat="51.7783914506" lon="-2.3520766944"><ele>9.75</ele><time>2011-11-16T11:54:29Z</time></trkpt><trkpt lat="51.7783616949" lon="-2.3521898501"><ele>9.75</ele><time>2011-11-16T11:54:35Z</time></trkpt><trkpt lat="51.7783254851" lon="-2.3523380421"><ele>9.75</ele><time>2011-11-16T11:54:44Z</time></trkpt><trkpt lat="51.7783300113" lon="-2.3523662891"><ele>9.75</ele><time>2011-11-16T11:54:52Z</time></trkpt><trkpt lat="51.7783199530" lon="-2.3524628486"><ele>9.75</ele><time>2011-11-16T11:54:59Z</time></trkpt><trkpt lat="51.7783196177" lon="-2.3524795286"><ele>9.75</ele><time>2011-11-16T11:55:00Z</time></trkpt><trkpt lat="51.7782770377" lon="-2.3526814487"><ele>9.75</ele><time>2011-11-16T11:55:09Z</time></trkpt><trkpt lat="51.7782296799" lon="-2.3528342508"><ele>9.75</ele><time>2011-11-16T11:55:18Z</time></trkpt><trkpt lat="51.7781759519" lon="-2.3529966921"><ele>9.75</ele><time>2011-11-16T11:55:28Z</time></trkpt><trkpt lat="51.7781330366" lon="-2.3531722091"><ele>9.75</ele><time>2011-11-16T11:55:37Z</time></trkpt><trkpt lat="51.7780897021" lon="-2.3533385061"><ele>9.75</ele><time>2011-11-16T11:55:46Z</time></trkpt><trkpt lat="51.7780718487" lon="-2.3534464650"><ele>9.75</ele><time>2011-11-16T11:55:54Z</time></trkpt><trkpt lat="51.7780547496" lon="-2.3534859437"><ele>9.75</ele><time>2011-11-16T11:56:01Z</time></trkpt><trkpt lat="51.7780500557" lon="-2.3535120953"><ele>9.75</ele><time>2011-11-16T11:56:09Z</time></trkpt><trkpt lat="51.7780500557" lon="-2.3535120953"><ele>9.75</ele><time>2011-11-16T11:56:20Z</time></trkpt><trkpt lat="51.7780500557" lon="-2.3535120953"><ele>9.75</ele><time>2011-11-16T11:56:39Z</time></trkpt><trkpt lat="51.7780482117" lon="-2.3535170406"><ele>9.75</ele><time>2011-11-16T11:56:52Z</time></trkpt><trkpt lat="51.7780482117" lon="-2.3535170406"><ele>9.75</ele><time>2011-11-16T11:57:09Z</time></trkpt><trkpt lat="51.7780485470" lon="-2.3535166215"><ele>10.23</ele><time>2011-11-16T11:57:29Z</time></trkpt><trkpt lat="51.7780485470" lon="-2.3535166215"><ele>10.23</ele><time>2011-11-16T11:57:39Z</time></trkpt><trkpt lat="51.7780436855" lon="-2.3535503168"><ele>10.23</ele><time>2011-11-16T11:57:50Z</time></trkpt><trkpt lat="51.7780216411" lon="-2.3536472954"><ele>10.23</ele><time>2011-11-16T11:57:58Z</time></trkpt><trkpt lat="51.7779797316" lon="-2.3538039532"><ele>9.75</ele><time>2011-11-16T11:58:09Z</time></trkpt><trkpt lat="51.7779396661" lon="-2.3539285921"><ele>10.23</ele><time>2011-11-16T11:58:16Z</time></trkpt><trkpt lat="51.7779172864" lon="-2.3540342879"><ele>10.23</ele><time>2011-11-16T11:58:23Z</time></trkpt><trkpt lat="51.7778833397" lon="-2.3541862518"><ele>10.71</ele><time>2011-11-16T11:58:32Z</time></trkpt><trkpt lat="51.7778446991" lon="-2.3543041851"><ele>10.23</ele><time>2011-11-16T11:58:40Z</time></trkpt><trkpt lat="51.7778046336" lon="-2.3544562329"><ele>10.23</ele><time>2011-11-16T11:58:50Z</time></trkpt><trkpt lat="51.7777971737" lon="-2.3544715717"><ele>10.23</ele><time>2011-11-16T11:58:51Z</time></trkpt><trkpt lat="51.7777665798" lon="-2.3545658682"><ele>10.71</ele><time>2011-11-16T11:58:57Z</time></trkpt><trkpt lat="51.7777294479" lon="-2.3547104560"><ele>10.23</ele><time>2011-11-16T11:59:06Z</time></trkpt><trkpt lat="51.7776987702" lon="-2.3548523616"><ele>10.23</ele><time>2011-11-16T11:59:13Z</time></trkpt><trkpt lat="51.7776696850" lon="-2.3549822811"><ele>10.23</ele><time>2011-11-16T11:59:22Z</time></trkpt><trkpt lat="51.7776437011" lon="-2.3550938442"><ele>10.71</ele><time>2011-11-16T11:59:30Z</time></trkpt><trkpt lat="51.7776084971" lon="-2.3552475683"><ele>10.23</ele><time>2011-11-16T11:59:40Z</time></trkpt><trkpt lat="51.7775677610" lon="-2.3553618137"><ele>10.71</ele><time>2011-11-16T11:59:48Z</time></trkpt><trkpt lat="51.7775323894" lon="-2.3554808367"><ele>11.19</ele><time>2011-11-16T11:59:57Z</time></trkpt><trkpt lat="51.7774933297" lon="-2.3556308728"><ele>10.71</ele><time>2011-11-16T12:00:06Z</time></trkpt><trkpt lat="51.7774629872" lon="-2.3557572719"><ele>10.71</ele><time>2011-11-16T12:00:14Z</time></trkpt><trkpt lat="51.7774195690" lon="-2.3558912147"><ele>11.19</ele><time>2011-11-16T12:00:22Z</time></trkpt><trkpt lat="51.7773720436" lon="-2.3560539912"><ele>10.71</ele><time>2011-11-16T12:00:32Z</time></trkpt><trkpt lat="51.7773430422" lon="-2.3561598547"><ele>11.19</ele><time>2011-11-16T12:00:40Z</time></trkpt><trkpt lat="51.7772950139" lon="-2.3563162610"><ele>10.71</ele><time>2011-11-16T12:00:49Z</time></trkpt><trkpt lat="51.7772561219" lon="-2.3564434145"><ele>10.71</ele><time>2011-11-16T12:00:57Z</time></trkpt><trkpt lat="51.7772044893" lon="-2.3565965518"><ele>11.19</ele><time>2011-11-16T12:01:06Z</time></trkpt><trkpt lat="51.7771692853" lon="-2.3567315843"><ele>11.67</ele><time>2011-11-16T12:01:15Z</time></trkpt><trkpt lat="51.7771456484" lon="-2.3568519484"><ele>11.19</ele><time>2011-11-16T12:01:23Z</time></trkpt><trkpt lat="51.7771000508" lon="-2.3570433073"><ele>11.19</ele><time>2011-11-16T12:01:33Z</time></trkpt><trkpt lat="51.7770568840" lon="-2.3571780883"><ele>11.19</ele><time>2011-11-16T12:01:41Z</time></trkpt><trkpt lat="51.7770238593" lon="-2.3572993744"><ele>10.71</ele><time>2011-11-16T12:01:49Z</time></trkpt><trkpt lat="51.7769904993" lon="-2.3574183974"><ele>11.19</ele><time>2011-11-16T12:01:57Z</time></trkpt><trkpt lat="51.7769542057" lon="-2.3574948404"><ele>11.19</ele><time>2011-11-16T12:02:04Z</time></trkpt><trkpt lat="51.7769432254" lon="-2.3575661704"><ele>11.19</ele><time>2011-11-16T12:02:12Z</time></trkpt><trkpt lat="51.7769317422" lon="-2.3575851973"><ele>11.19</ele><time>2011-11-16T12:02:13Z</time></trkpt><trkpt lat="51.7768311594" lon="-2.3577074055"><ele>11.19</ele><time>2011-11-16T12:02:22Z</time></trkpt><trkpt lat="51.7767470889" lon="-2.3577396758"><ele>11.19</ele><time>2011-11-16T12:02:29Z</time></trkpt><trkpt lat="51.7766859848" lon="-2.3577553499"><ele>11.67</ele><time>2011-11-16T12:02:36Z</time></trkpt><trkpt lat="51.7766771838" lon="-2.3577550985"><ele>11.19</ele><time>2011-11-16T12:02:40Z</time></trkpt><trkpt lat="51.7765246332" lon="-2.3577257618"><ele>11.67</ele><time>2011-11-16T12:02:51Z</time></trkpt><trkpt lat="51.7764035147" lon="-2.3576905578"><ele>11.67</ele><time>2011-11-16T12:03:00Z</time></trkpt><trkpt lat="51.7763201986" lon="-2.3576481454"><ele>11.19</ele><time>2011-11-16T12:03:07Z</time></trkpt><trkpt lat="51.7762210406" lon="-2.3576037213"><ele>11.19</ele><time>2011-11-16T12:03:17Z</time></trkpt><trkpt lat="51.7761416640" lon="-2.3575745523"><ele>11.19</ele><time>2011-11-16T12:03:25Z</time></trkpt><trkpt lat="51.7760594375" lon="-2.3575692717"><ele>11.19</ele><time>2011-11-16T12:03:33Z</time></trkpt><trkpt lat="51.7759696674" lon="-2.3576023802"><ele>11.19</ele><time>2011-11-16T12:03:41Z</time></trkpt><trkpt lat="51.7758861836" lon="-2.3576861154"><ele>11.19</ele><time>2011-11-16T12:03:52Z</time></trkpt><trkpt lat="51.7758227326" lon="-2.3577606305"><ele>11.19</ele><time>2011-11-16T12:04:00Z</time></trkpt><trkpt lat="51.7757656518" lon="-2.3578623030"><ele>11.19</ele><time>2011-11-16T12:04:07Z</time></trkpt><trkpt lat="51.7756857723" lon="-2.3579866067"><ele>11.19</ele><time>2011-11-16T12:04:16Z</time></trkpt><trkpt lat="51.7756097484" lon="-2.3580994271"><ele>11.19</ele><time>2011-11-16T12:04:26Z</time></trkpt><trkpt lat="51.7755380832" lon="-2.3582090624"><ele>11.19</ele><time>2011-11-16T12:04:35Z</time></trkpt><trkpt lat="51.7754613888" lon="-2.3583217990"><ele>11.19</ele><time>2011-11-16T12:04:45Z</time></trkpt><trkpt lat="51.7753955070" lon="-2.3584253155"><ele>11.19</ele><time>2011-11-16T12:04:54Z</time></trkpt><trkpt lat="51.7753166333" lon="-2.3585227970"><ele>11.19</ele><time>2011-11-16T12:05:03Z</time></trkpt><trkpt lat="51.7752342392" lon="-2.3586330190"><ele>11.19</ele><time>2011-11-16T12:05:12Z</time></trkpt><trkpt lat="51.7751564551" lon="-2.3587435763"><ele>11.19</ele><time>2011-11-16T12:05:20Z</time></trkpt><trkpt lat="51.7750868853" lon="-2.3588252161"><ele>11.19</ele><time>2011-11-16T12:05:28Z</time></trkpt><trkpt lat="51.7750310618" lon="-2.3588920198"><ele>11.67</ele><time>2011-11-16T12:05:35Z</time></trkpt><trkpt lat="51.7749413755" lon="-2.3589737434"><ele>11.19</ele><time>2011-11-16T12:05:45Z</time></trkpt><trkpt lat="51.7748817801" lon="-2.3590300698"><ele>11.67</ele><time>2011-11-16T12:05:52Z</time></trkpt><trkpt lat="51.7748391163" lon="-2.3590765055"><ele>11.19</ele><time>2011-11-16T12:05:58Z</time></trkpt><trkpt lat="51.7747728154" lon="-2.3591595702"><ele>11.19</ele><time>2011-11-16T12:06:05Z</time></trkpt><trkpt lat="51.7747269664" lon="-2.3592153098"><ele>11.19</ele><time>2011-11-16T12:06:09Z</time></trkpt><trkpt lat="51.7746946122" lon="-2.3592938483"><ele>11.67</ele><time>2011-11-16T12:06:17Z</time></trkpt><trkpt lat="51.7746946122" lon="-2.3592938483"><ele>11.19</ele><time>2011-11-16T12:06:20Z</time></trkpt><trkpt lat="51.7746185884" lon="-2.3594012205"><ele>11.19</ele><time>2011-11-16T12:06:28Z</time></trkpt><trkpt lat="51.7745429836" lon="-2.3594381846"><ele>11.19</ele><time>2011-11-16T12:06:34Z</time></trkpt><trkpt lat="51.7744624335" lon="-2.3595286254"><ele>11.19</ele><time>2011-11-16T12:06:43Z</time></trkpt><trkpt lat="51.7743646167" lon="-2.3596498277"><ele>11.67</ele><time>2011-11-16T12:06:53Z</time></trkpt><trkpt lat="51.7742754333" lon="-2.3597540986"><ele>11.67</ele><time>2011-11-16T12:07:03Z</time></trkpt><trkpt lat="51.7742066178" lon="-2.3598483112"><ele>11.67</ele><time>2011-11-16T12:07:11Z</time></trkpt><trkpt lat="51.7741298396" lon="-2.3599471338"><ele>11.19</ele><time>2011-11-16T12:07:21Z</time></trkpt><trkpt lat="51.7740618624" lon="-2.3600309528"><ele>11.67</ele><time>2011-11-16T12:07:29Z</time></trkpt><trkpt lat="51.7739977408" lon="-2.3601089884"><ele>11.19</ele><time>2011-11-16T12:07:37Z</time></trkpt><trkpt lat="51.7739324458" lon="-2.3601958249"><ele>11.67</ele><time>2011-11-16T12:07:45Z</time></trkpt><trkpt lat="51.7738461122" lon="-2.3603164405"><ele>11.19</ele><time>2011-11-16T12:07:54Z</time></trkpt><trkpt lat="51.7737717647" lon="-2.3604363855"><ele>11.19</ele><time>2011-11-16T12:08:04Z</time></trkpt><trkpt lat="51.7737348005" lon="-2.3604681529"><ele>11.67</ele><time>2011-11-16T12:08:09Z</time></trkpt><trkpt lat="51.7736725230" lon="-2.3605276644"><ele>11.67</ele><time>2011-11-16T12:08:17Z</time></trkpt><trkpt lat="51.7735700961" lon="-2.3606245592"><ele>11.67</ele><time>2011-11-16T12:08:29Z</time></trkpt><trkpt lat="51.7735139374" lon="-2.3606709950"><ele>11.19</ele><time>2011-11-16T12:08:35Z</time></trkpt><trkpt lat="51.7734292801" lon="-2.3607584182"><ele>11.67</ele><time>2011-11-16T12:08:44Z</time></trkpt><trkpt lat="51.7734292801" lon="-2.3607584182"><ele>11.19</ele><time>2011-11-16T12:08:46Z</time></trkpt><trkpt lat="51.7734070681" lon="-2.3607756849"><ele>11.19</ele><time>2011-11-16T12:08:48Z</time></trkpt><trkpt lat="51.7732800823" lon="-2.3608652875"><ele>11.19</ele><time>2011-11-16T12:08:57Z</time></trkpt><trkpt lat="51.7731970176" lon="-2.3609225359"><ele>11.19</ele><time>2011-11-16T12:09:04Z</time></trkpt><trkpt lat="51.7731208261" lon="-2.3609828018"><ele>11.67</ele><time>2011-11-16T12:09:13Z</time></trkpt><trkpt lat="51.7730615661" lon="-2.3610259686"><ele>11.19</ele><time>2011-11-16T12:09:21Z</time></trkpt><trkpt lat="51.7730204947" lon="-2.3610821273"><ele>11.19</ele><time>2011-11-16T12:09:28Z</time></trkpt><trkpt lat="51.7730023060" lon="-2.3610942811"><ele>11.67</ele><time>2011-11-16T12:09:30Z</time></trkpt><trkpt lat="51.7729823571" lon="-2.3611097038"><ele>11.67</ele><time>2011-11-16T12:09:32Z</time></trkpt><trkpt lat="51.7729044054" lon="-2.3611736577"><ele>11.67</ele><time>2011-11-16T12:09:40Z</time></trkpt><trkpt lat="51.7728387751" lon="-2.3612401262"><ele>11.67</ele><time>2011-11-16T12:09:48Z</time></trkpt><trkpt lat="51.7728268728" lon="-2.3612496816"><ele>11.19</ele><time>2011-11-16T12:09:54Z</time></trkpt><trkpt lat="51.7727989610" lon="-2.3612660263"><ele>11.67</ele><time>2011-11-16T12:09:59Z</time></trkpt><trkpt lat="51.7727289721" lon="-2.3613269627"><ele>11.67</ele><time>2011-11-16T12:10:07Z</time></trkpt><trkpt lat="51.7726600729" lon="-2.3614172358"><ele>11.67</ele><time>2011-11-16T12:10:15Z</time></trkpt><trkpt lat="51.7725718953" lon="-2.3615166452"><ele>11.19</ele><time>2011-11-16T12:10:24Z</time></trkpt><trkpt lat="51.7724574823" lon="-2.3616458103"><ele>11.67</ele><time>2011-11-16T12:10:35Z</time></trkpt><trkpt lat="51.7723708972" lon="-2.3617378436"><ele>11.19</ele><time>2011-11-16T12:10:45Z</time></trkpt><trkpt lat="51.7723035906" lon="-2.3618171364"><ele>11.19</ele><time>2011-11-16T12:10:53Z</time></trkpt><trkpt lat="51.7722524609" lon="-2.3618638236"><ele>11.19</ele><time>2011-11-16T12:11:01Z</time></trkpt><trkpt lat="51.7721673846" lon="-2.3619477265"><ele>11.67</ele><time>2011-11-16T12:11:11Z</time></trkpt><trkpt lat="51.7720695678" lon="-2.3620421067"><ele>11.19</ele><time>2011-11-16T12:11:20Z</time></trkpt><trkpt lat="51.7720616888" lon="-2.3620511591"><ele>11.67</ele><time>2011-11-16T12:11:21Z</time></trkpt><trkpt lat="51.7720271554" lon="-2.3620775621"><ele>11.67</ele><time>2011-11-16T12:11:24Z</time></trkpt><trkpt lat="51.7719241418" lon="-2.3621776421"><ele>11.67</ele><time>2011-11-16T12:11:34Z</time></trkpt><trkpt lat="51.7719124071" lon="-2.3621875327"><ele>11.67</ele><time>2011-11-16T12:11:42Z</time></trkpt><trkpt lat="51.7718766164" lon="-2.3622087389"><ele>11.67</ele><time>2011-11-16T12:11:48Z</time></trkpt><trkpt lat="51.7717769556" lon="-2.3622864392"><ele>11.19</ele><time>2011-11-16T12:11:58Z</time></trkpt><trkpt lat="51.7717005126" lon="-2.3623436037"><ele>11.67</ele><time>2011-11-16T12:12:06Z</time></trkpt><trkpt lat="51.7716596927" lon="-2.3624064680"><ele>11.67</ele><time>2011-11-16T12:12:12Z</time></trkpt><trkpt lat="51.7716017738" lon="-2.3625165224"><ele>11.67</ele><time>2011-11-16T12:12:22Z</time></trkpt><trkpt lat="51.7715932243" lon="-2.3625281733"><ele>11.67</ele><time>2011-11-16T12:12:28Z</time></trkpt><trkpt lat="51.7715932243" lon="-2.3625281733"><ele>11.67</ele><time>2011-11-16T12:12:45Z</time></trkpt><trkpt lat="51.7715932243" lon="-2.3625281733"><ele>12.15</ele><time>2011-11-16T12:13:02Z</time></trkpt><trkpt lat="51.7715934757" lon="-2.3625287600"><ele>12.15</ele><time>2011-11-16T12:13:14Z</time></trkpt><trkpt lat="51.7715934757" lon="-2.3625287600"><ele>12.15</ele><time>2011-11-16T12:13:32Z</time></trkpt><trkpt lat="51.7715930566" lon="-2.3625340406"><ele>11.67</ele><time>2011-11-16T12:13:45Z</time></trkpt><trkpt lat="51.7715930566" lon="-2.3625340406"><ele>12.15</ele><time>2011-11-16T12:13:57Z</time></trkpt><trkpt lat="51.7715783883" lon="-2.3625234794"><ele>11.19</ele><time>2011-11-16T12:14:10Z</time></trkpt><trkpt lat="51.7715282645" lon="-2.3624508921"><ele>11.19</ele><time>2011-11-16T12:14:18Z</time></trkpt><trkpt lat="51.7715029512" lon="-2.3624265008"><ele>11.67</ele><time>2011-11-16T12:14:22Z</time></trkpt><trkpt lat="51.7714881990" lon="-2.3623949848"><ele>12.15</ele><time>2011-11-16T12:14:24Z</time></trkpt><trkpt lat="51.7714254186" lon="-2.3622408416"><ele>11.67</ele><time>2011-11-16T12:14:33Z</time></trkpt><trkpt lat="51.7713765521" lon="-2.3621134367"><ele>11.67</ele><time>2011-11-16T12:14:41Z</time></trkpt><trkpt lat="51.7713445332" lon="-2.3619958386"><ele>12.15</ele><time>2011-11-16T12:14:48Z</time></trkpt><trkpt lat="51.7712984327" lon="-2.3618908972"><ele>11.67</ele><time>2011-11-16T12:14:54Z</time></trkpt><trkpt lat="51.7712629773" lon="-2.3618064914"><ele>12.15</ele><time>2011-11-16T12:15:00Z</time></trkpt><trkpt lat="51.7712329701" lon="-2.3616997059"><ele>11.67</ele><time>2011-11-16T12:15:06Z</time></trkpt><trkpt lat="51.7712236661" lon="-2.3616697825"><ele>12.15</ele><time>2011-11-16T12:15:08Z</time></trkpt><trkpt lat="51.7711890489" lon="-2.3615801800"><ele>12.15</ele><time>2011-11-16T12:15:13Z</time></trkpt><trkpt lat="51.7711642385" lon="-2.3615100235"><ele>11.67</ele><time>2011-11-16T12:15:18Z</time></trkpt><trkpt lat="51.7711103428" lon="-2.3613710515"><ele>11.19</ele><time>2011-11-16T12:15:26Z</time></trkpt><trkpt lat="51.7710630689" lon="-2.3612434790"><ele>11.67</ele><time>2011-11-16T12:15:33Z</time></trkpt><trkpt lat="51.7710240092" lon="-2.3611257970"><ele>11.67</ele><time>2011-11-16T12:15:41Z</time></trkpt><trkpt lat="51.7709831893" lon="-2.3610328417"><ele>11.67</ele><time>2011-11-16T12:15:49Z</time></trkpt><trkpt lat="51.7709693592" lon="-2.3609942012"><ele>11.67</ele><time>2011-11-16T12:15:51Z</time></trkpt><trkpt lat="51.7709441297" lon="-2.3609273136"><ele>11.67</ele><time>2011-11-16T12:15:56Z</time></trkpt><trkpt lat="51.7709243484" lon="-2.3608966358"><ele>11.19</ele><time>2011-11-16T12:15:58Z</time></trkpt><trkpt lat="51.7708723806" lon="-2.3607661296"><ele>11.67</ele><time>2011-11-16T12:16:05Z</time></trkpt><trkpt lat="51.7708104383" lon="-2.3606476933"><ele>11.67</ele><time>2011-11-16T12:16:14Z</time></trkpt><trkpt lat="51.7707724683" lon="-2.3605419975"><ele>12.15</ele><time>2011-11-16T12:16:21Z</time></trkpt><trkpt lat="51.7707220931" lon="-2.3604527302"><ele>11.67</ele><time>2011-11-16T12:16:29Z</time></trkpt><trkpt lat="51.7707127891" lon="-2.3604336195"><ele>12.15</ele><time>2011-11-16T12:16:31Z</time></trkpt><trkpt lat="51.7706631683" lon="-2.3603530694"><ele>11.67</ele><time>2011-11-16T12:16:38Z</time></trkpt><trkpt lat="51.7706073448" lon="-2.3602819070"><ele>12.15</ele><time>2011-11-16T12:16:44Z</time></trkpt><trkpt lat="51.7705669440" lon="-2.3602223955"><ele>12.15</ele><time>2011-11-16T12:16:48Z</time></trkpt><trkpt lat="51.7704749107" lon="-2.3600972537"><ele>11.67</ele><time>2011-11-16T12:16:56Z</time></trkpt><trkpt lat="51.7703974620" lon="-2.3599669989"><ele>12.15</ele><time>2011-11-16T12:17:05Z</time></trkpt><trkpt lat="51.7703413870" lon="-2.3598602135"><ele>12.15</ele><time>2011-11-16T12:17:11Z</time></trkpt><trkpt lat="51.7703125533" lon="-2.3598031327"><ele>12.15</ele><time>2011-11-16T12:17:14Z</time></trkpt><trkpt lat="51.7702685483" lon="-2.3597194813"><ele>12.15</ele><time>2011-11-16T12:17:19Z</time></trkpt><trkpt lat="51.7701851483" lon="-2.3595770728"><ele>12.15</ele><time>2011-11-16T12:17:28Z</time></trkpt><trkpt lat="51.7701244634" lon="-2.3594725505"><ele>12.15</ele><time>2011-11-16T12:17:35Z</time></trkpt><trkpt lat="51.7700805422" lon="-2.3593938444"><ele>12.15</ele><time>2011-11-16T12:17:40Z</time></trkpt><trkpt lat="51.7700065300" lon="-2.3592417967"><ele>12.15</ele><time>2011-11-16T12:17:48Z</time></trkpt><trkpt lat="51.7699848209" lon="-2.3591976240"><ele>11.67</ele><time>2011-11-16T12:17:51Z</time></trkpt><trkpt lat="51.7699315120" lon="-2.3590779305"><ele>12.15</ele><time>2011-11-16T12:17:59Z</time></trkpt><trkpt lat="51.7698724195" lon="-2.3589417245"><ele>12.63</ele><time>2011-11-16T12:18:07Z</time></trkpt><trkpt lat="51.7698453460" lon="-2.3588768486"><ele>12.15</ele><time>2011-11-16T12:18:11Z</time></trkpt><trkpt lat="51.7697859183" lon="-2.3588070273"><ele>12.15</ele><time>2011-11-16T12:18:19Z</time></trkpt><trkpt lat="51.7697549053" lon="-2.3587724939"><ele>12.63</ele><time>2011-11-16T12:18:23Z</time></trkpt><trkpt lat="51.7696864251" lon="-2.3586733360"><ele>12.63</ele><time>2011-11-16T12:18:31Z</time></trkpt><trkpt lat="51.7696587648" lon="-2.3586315941"><ele>12.63</ele><time>2011-11-16T12:18:38Z</time></trkpt><trkpt lat="51.7696587648" lon="-2.3586315941"><ele>12.15</ele><time>2011-11-16T12:18:40Z</time></trkpt><trkpt lat="51.7696182802" lon="-2.3585375492"><ele>12.63</ele><time>2011-11-16T12:18:47Z</time></trkpt><trkpt lat="51.7694976646" lon="-2.3583480343"><ele>13.12</ele><time>2011-11-16T12:18:56Z</time></trkpt><trkpt lat="51.7694814876" lon="-2.3583206255"><ele>13.12</ele><time>2011-11-16T12:19:06Z</time></trkpt><trkpt lat="51.7694814876" lon="-2.3583206255"><ele>12.63</ele><time>2011-11-16T12:19:10Z</time></trkpt><trkpt lat="51.7694283463" lon="-2.3583018500"><ele>12.63</ele><time>2011-11-16T12:19:18Z</time></trkpt><trkpt lat="51.7694283463" lon="-2.3583018500"><ele>12.63</ele><time>2011-11-16T12:19:26Z</time></trkpt><trkpt lat="51.7694089003" lon="-2.3582803085"><ele>13.12</ele><time>2011-11-16T12:19:34Z</time></trkpt><trkpt lat="51.7693699244" lon="-2.3583373055"><ele>12.63</ele><time>2011-11-16T12:19:41Z</time></trkpt><trkpt lat="51.7693601176" lon="-2.3583500460"><ele>12.63</ele><time>2011-11-16T12:19:42Z</time></trkpt><trkpt lat="51.7693330441" lon="-2.3583813105"><ele>12.63</ele><time>2011-11-16T12:19:44Z</time></trkpt><trkpt lat="51.7692294437" lon="-2.3585227132"><ele>12.63</ele><time>2011-11-16T12:19:53Z</time></trkpt><trkpt lat="51.7691422720" lon="-2.3586365394"><ele>12.15</ele><time>2011-11-16T12:20:02Z</time></trkpt><trkpt lat="51.7690897174" lon="-2.3586860765"><ele>12.63</ele><time>2011-11-16T12:20:08Z</time></trkpt><trkpt lat="51.7690279428" lon="-2.3587222863"><ele>12.63</ele><time>2011-11-16T12:20:13Z</time></trkpt><trkpt lat="51.7689563613" lon="-2.3587040137"><ele>12.15</ele><time>2011-11-16T12:20:24Z</time></trkpt><trkpt lat="51.7689551879" lon="-2.3586963862"><ele>12.63</ele><time>2011-11-16T12:20:34Z</time></trkpt><trkpt lat="51.7689570319" lon="-2.3586898483"><ele>12.15</ele><time>2011-11-16T12:20:52Z</time></trkpt><trkpt lat="51.7689242586" lon="-2.3586509563"><ele>12.15</ele><time>2011-11-16T12:20:59Z</time></trkpt><trkpt lat="51.7689187266" lon="-2.3586409818"><ele>11.67</ele><time>2011-11-16T12:21:13Z</time></trkpt><trkpt lat="51.7688991129" lon="-2.3586187698"><ele>10.71</ele><time>2011-11-16T12:21:20Z</time></trkpt><trkpt lat="51.7689010408" lon="-2.3586068675"><ele>10.71</ele><time>2011-11-16T12:21:28Z</time></trkpt><trkpt lat="51.7689010408" lon="-2.3586068675"><ele>10.71</ele><time>2011-11-16T12:21:37Z</time></trkpt><trkpt lat="51.7689010408" lon="-2.3586068675"><ele>10.71</ele><time>2011-11-16T12:21:51Z</time></trkpt><trkpt lat="51.7689010408" lon="-2.3586068675"><ele>10.71</ele><time>2011-11-16T12:22:00Z</time></trkpt><trkpt lat="51.7689016275" lon="-2.3586066160"><ele>10.23</ele><time>2011-11-16T12:22:18Z</time></trkpt><trkpt lat="51.7689016275" lon="-2.3586066160"><ele>10.71</ele><time>2011-11-16T12:22:32Z</time></trkpt><trkpt lat="51.7689022142" lon="-2.3586066160"><ele>10.71</ele><time>2011-11-16T12:22:42Z</time></trkpt><trkpt lat="51.7689022142" lon="-2.3586066160"><ele>10.71</ele><time>2011-11-16T12:22:58Z</time></trkpt><trkpt lat="51.7689022142" lon="-2.3586066160"><ele>11.19</ele><time>2011-11-16T12:23:15Z</time></trkpt><trkpt lat="51.7688991129" lon="-2.3585998267"><ele>10.71</ele><time>2011-11-16T12:23:25Z</time></trkpt><trkpt lat="51.7688991129" lon="-2.3585998267"><ele>12.15</ele><time>2011-11-16T12:23:27Z</time></trkpt><trkpt lat="51.7689142842" lon="-2.3587098811"><ele>12.63</ele><time>2011-11-16T12:23:34Z</time></trkpt><trkpt lat="51.7688872945" lon="-2.3588703945"><ele>13.12</ele><time>2011-11-16T12:23:44Z</time></trkpt><trkpt lat="51.7688799184" lon="-2.3588859849"><ele>12.63</ele><time>2011-11-16T12:23:45Z</time></trkpt><trkpt lat="51.7688640766" lon="-2.3589299899"><ele>12.63</ele><time>2011-11-16T12:23:48Z</time></trkpt><trkpt lat="51.7688069958" lon="-2.3590439837"><ele>12.63</ele><time>2011-11-16T12:23:56Z</time></trkpt><trkpt lat="51.7687738035" lon="-2.3591404594"><ele>13.12</ele><time>2011-11-16T12:24:03Z</time></trkpt><trkpt lat="51.7687206622" lon="-2.3592482507"><ele>12.63</ele><time>2011-11-16T12:24:12Z</time></trkpt><trkpt lat="51.7686576303" lon="-2.3593405355"><ele>12.63</ele><time>2011-11-16T12:24:21Z</time></trkpt><trkpt lat="51.7686271202" lon="-2.3593872227"><ele>12.63</ele><time>2011-11-16T12:24:25Z</time></trkpt><trkpt lat="51.7685538623" lon="-2.3594709579"><ele>13.12</ele><time>2011-11-16T12:24:34Z</time></trkpt><trkpt lat="51.7685465701" lon="-2.3594784178"><ele>13.12</ele><time>2011-11-16T12:24:35Z</time></trkpt><trkpt lat="51.7684806883" lon="-2.3595550284"><ele>12.63</ele><time>2011-11-16T12:24:44Z</time></trkpt><trkpt lat="51.7684366833" lon="-2.3596087564"><ele>13.60</ele><time>2011-11-16T12:24:53Z</time></trkpt><trkpt lat="51.7683948576" lon="-2.3596649151"><ele>13.12</ele><time>2011-11-16T12:25:01Z</time></trkpt><trkpt lat="51.7683440633" lon="-2.3597321380"><ele>13.60</ele><time>2011-11-16T12:25:10Z</time></trkpt><trkpt lat="51.7682908382" lon="-2.3597996961"><ele>13.12</ele><time>2011-11-16T12:25:19Z</time></trkpt><trkpt lat="51.7682483420" lon="-2.3598509096"><ele>12.63</ele><time>2011-11-16T12:25:26Z</time></trkpt><trkpt lat="51.7681903392" lon="-2.3599317111"><ele>13.12</ele><time>2011-11-16T12:25:34Z</time></trkpt><trkpt lat="51.7681307439" lon="-2.3600014485"><ele>13.12</ele><time>2011-11-16T12:25:42Z</time></trkpt><trkpt lat="51.7680623475" lon="-2.3600961640"><ele>13.60</ele><time>2011-11-16T12:25:51Z</time></trkpt><trkpt lat="51.7680568155" lon="-2.3601021152"><ele>13.12</ele><time>2011-11-16T12:25:52Z</time></trkpt><trkpt lat="51.7680245452" lon="-2.3601361457"><ele>13.12</ele><time>2011-11-16T12:25:56Z</time></trkpt><trkpt lat="51.7679773550" lon="-2.3601890355"><ele>13.60</ele><time>2011-11-16T12:26:02Z</time></trkpt><trkpt lat="51.7679127306" lon="-2.3602860980"><ele>13.12</ele><time>2011-11-16T12:26:11Z</time></trkpt><trkpt lat="51.7678717431" lon="-2.3603560030"><ele>12.63</ele><time>2011-11-16T12:26:19Z</time></trkpt><trkpt lat="51.7678529676" lon="-2.3603782989"><ele>13.12</ele><time>2011-11-16T12:26:22Z</time></trkpt><trkpt lat="51.7678119801" lon="-2.3604500480"><ele>12.63</ele><time>2011-11-16T12:26:30Z</time></trkpt><trkpt lat="51.7678080406" lon="-2.3605000880"><ele>13.12</ele><time>2011-11-16T12:26:34Z</time></trkpt><trkpt lat="51.7678096332" lon="-2.3605239764"><ele>13.60</ele><time>2011-11-16T12:26:36Z</time></trkpt><trkpt lat="51.7678283248" lon="-2.3606765270"><ele>12.63</ele><time>2011-11-16T12:26:44Z</time></trkpt><trkpt lat="51.7678631935" lon="-2.3608030099"><ele>12.63</ele><time>2011-11-16T12:26:52Z</time></trkpt><trkpt lat="51.7678945418" lon="-2.3609037604"><ele>12.63</ele><time>2011-11-16T12:26:59Z</time></trkpt><trkpt lat="51.7679436598" lon="-2.3610335961"><ele>13.12</ele><time>2011-11-16T12:27:08Z</time></trkpt><trkpt lat="51.7679900955" lon="-2.3611507751"><ele>13.12</ele><time>2011-11-16T12:27:16Z</time></trkpt><trkpt lat="51.7680232041" lon="-2.3612061795"><ele>13.12</ele><time>2011-11-16T12:27:21Z</time></trkpt><trkpt lat="51.7680506129" lon="-2.3612599075"><ele>13.12</ele><time>2011-11-16T12:27:29Z</time></trkpt><trkpt lat="51.7680734117" lon="-2.3612878192"><ele>13.12</ele><time>2011-11-16T12:27:36Z</time></trkpt><trkpt lat="51.7680909298" lon="-2.3613661062"><ele>12.63</ele><time>2011-11-16T12:27:40Z</time></trkpt><trkpt lat="51.7681364436" lon="-2.3615495861"><ele>12.63</ele><time>2011-11-16T12:27:50Z</time></trkpt><trkpt lat="51.7681392934" lon="-2.3615834489"><ele>12.63</ele><time>2011-11-16T12:27:52Z</time></trkpt><trkpt lat="51.7681646906" lon="-2.3616491631"><ele>12.15</ele><time>2011-11-16T12:27:56Z</time></trkpt><trkpt lat="51.7681992240" lon="-2.3618181422"><ele>12.63</ele><time>2011-11-16T12:28:06Z</time></trkpt><trkpt lat="51.7682294827" lon="-2.3619558569"><ele>12.15</ele><time>2011-11-16T12:28:14Z</time></trkpt><trkpt lat="51.7682593223" lon="-2.3621031269"><ele>12.15</ele><time>2011-11-16T12:28:22Z</time></trkpt><trkpt lat="51.7682900000" lon="-2.3622421827"><ele>12.63</ele><time>2011-11-16T12:28:30Z</time></trkpt><trkpt lat="51.7683110386" lon="-2.3623984214"><ele>12.63</ele><time>2011-11-16T12:28:39Z</time></trkpt><trkpt lat="51.7683213484" lon="-2.3624716792"><ele>12.15</ele><time>2011-11-16T12:28:43Z</time></trkpt><trkpt lat="51.7683231924" lon="-2.3625974916"><ele>12.15</ele><time>2011-11-16T12:28:51Z</time></trkpt><trkpt lat="51.7683021538" lon="-2.3626824003"><ele>11.67</ele><time>2011-11-16T12:28:57Z</time></trkpt><trkpt lat="51.7682951130" lon="-2.3628201988"><ele>12.63</ele><time>2011-11-16T12:29:05Z</time></trkpt><trkpt lat="51.7682808638" lon="-2.3628911097"><ele>12.15</ele><time>2011-11-16T12:29:10Z</time></trkpt><trkpt lat="51.7682638485" lon="-2.3629703186"><ele>12.15</ele><time>2011-11-16T12:29:17Z</time></trkpt><trkpt lat="51.7682638485" lon="-2.3629703186"><ele>12.63</ele><time>2011-11-16T12:29:28Z</time></trkpt><trkpt lat="51.7682638485" lon="-2.3629703186"><ele>12.15</ele><time>2011-11-16T12:29:37Z</time></trkpt><trkpt lat="51.7682662793" lon="-2.3630055226"><ele>12.63</ele><time>2011-11-16T12:29:39Z</time></trkpt><trkpt lat="51.7682765052" lon="-2.3630760983"><ele>12.63</ele><time>2011-11-16T12:29:47Z</time></trkpt><trkpt lat="51.7682765052" lon="-2.3630760983"><ele>12.15</ele><time>2011-11-16T12:29:59Z</time></trkpt><trkpt lat="51.7682765052" lon="-2.3630760983"><ele>12.63</ele><time>2011-11-16T12:30:07Z</time></trkpt><trkpt lat="51.7682546284" lon="-2.3631453328"><ele>12.15</ele><time>2011-11-16T12:30:17Z</time></trkpt><trkpt lat="51.7682300694" lon="-2.3632375337"><ele>12.15</ele><time>2011-11-16T12:30:25Z</time></trkpt><trkpt lat="51.7682225257" lon="-2.3632512800"><ele>12.15</ele><time>2011-11-16T12:30:35Z</time></trkpt><trkpt lat="51.7682225257" lon="-2.3632512800"><ele>12.63</ele><time>2011-11-16T12:30:37Z</time></trkpt><trkpt lat="51.7682025768" lon="-2.3632728215"><ele>12.15</ele><time>2011-11-16T12:30:40Z</time></trkpt><trkpt lat="51.7680943664" lon="-2.3633653577"><ele>12.15</ele><time>2011-11-16T12:30:50Z</time></trkpt><trkpt lat="51.7680092901" lon="-2.3634792678"><ele>12.63</ele><time>2011-11-16T12:30:59Z</time></trkpt><trkpt lat="51.7679408100" lon="-2.3635729775"><ele>12.63</ele><time>2011-11-16T12:31:07Z</time></trkpt><trkpt lat="51.7678512912" lon="-2.3636849597"><ele>12.15</ele><time>2011-11-16T12:31:17Z</time></trkpt><trkpt lat="51.7677475233" lon="-2.3637941759"><ele>12.15</ele><time>2011-11-16T12:31:26Z</time></trkpt><trkpt lat="51.7676657997" lon="-2.3638908193"><ele>12.15</ele><time>2011-11-16T12:31:35Z</time></trkpt><trkpt lat="51.7676081322" lon="-2.3639776558"><ele>11.67</ele><time>2011-11-16T12:31:43Z</time></trkpt><trkpt lat="51.7675474472" lon="-2.3640761431"><ele>11.67</ele><time>2011-11-16T12:31:51Z</time></trkpt><trkpt lat="51.7674806435" lon="-2.3641431145"><ele>12.15</ele><time>2011-11-16T12:31:59Z</time></trkpt><trkpt lat="51.7674714234" lon="-2.3641472217"><ele>12.15</ele><time>2011-11-16T12:32:10Z</time></trkpt><trkpt lat="51.7674835771" lon="-2.3641284462"><ele>12.15</ele><time>2011-11-16T12:32:25Z</time></trkpt><trkpt lat="51.7675548233" lon="-2.3640268575"><ele>12.15</ele><time>2011-11-16T12:32:34Z</time></trkpt><trkpt lat="51.7675596010" lon="-2.3640102614"><ele>12.15</ele><time>2011-11-16T12:32:35Z</time></trkpt><trkpt lat="51.7676273268" lon="-2.3639100138"><ele>12.63</ele><time>2011-11-16T12:32:43Z</time></trkpt><trkpt lat="51.7676993273" lon="-2.3638271168"><ele>12.63</ele><time>2011-11-16T12:32:51Z</time></trkpt><trkpt lat="51.7677958868" lon="-2.3637187388"><ele>12.15</ele><time>2011-11-16T12:33:00Z</time></trkpt><trkpt lat="51.7678751796" lon="-2.3636418767"><ele>12.63</ele><time>2011-11-16T12:33:08Z</time></trkpt><trkpt lat="51.7679459229" lon="-2.3635828681"><ele>12.63</ele><time>2011-11-16T12:33:17Z</time></trkpt><trkpt lat="51.7679714877" lon="-2.3635883164"><ele>12.15</ele><time>2011-11-16T12:33:24Z</time></trkpt><trkpt lat="51.7679819651" lon="-2.3636196647"><ele>12.15</ele><time>2011-11-16T12:33:32Z</time></trkpt><trkpt lat="51.7680421472" lon="-2.3636665195"><ele>12.63</ele><time>2011-11-16T12:33:40Z</time></trkpt><trkpt lat="51.7680670414" lon="-2.3636515159"><ele>12.63</ele><time>2011-11-16T12:33:49Z</time></trkpt><trkpt lat="51.7680916842" lon="-2.3635673616"><ele>12.63</ele><time>2011-11-16T12:33:57Z</time></trkpt><trkpt lat="51.7680950370" lon="-2.3635535315"><ele>12.63</ele><time>2011-11-16T12:34:09Z</time></trkpt><trkpt lat="51.7680979706" lon="-2.3635489214"><ele>12.15</ele><time>2011-11-16T12:34:19Z</time></trkpt><trkpt lat="51.7680979706" lon="-2.3635489214"><ele>13.12</ele><time>2011-11-16T12:34:33Z</time></trkpt><trkpt lat="51.7680962943" lon="-2.3635486700"><ele>12.63</ele><time>2011-11-16T12:34:44Z</time></trkpt><trkpt lat="51.7680866551" lon="-2.3635426350"><ele>12.63</ele><time>2011-11-16T12:34:55Z</time></trkpt><trkpt lat="51.7679645307" lon="-2.3635462392"><ele>12.63</ele><time>2011-11-16T12:35:05Z</time></trkpt><trkpt lat="51.7678445857" lon="-2.3635722231"><ele>12.63</ele><time>2011-11-16T12:35:14Z</time></trkpt><trkpt lat="51.7677388899" lon="-2.3636087682"><ele>12.63</ele><time>2011-11-16T12:35:23Z</time></trkpt><trkpt lat="51.7676241416" lon="-2.3636240233"><ele>12.63</ele><time>2011-11-16T12:35:32Z</time></trkpt><trkpt lat="51.7675305996" lon="-2.3636365961"><ele>13.12</ele><time>2011-11-16T12:35:40Z</time></trkpt><trkpt lat="51.7674363032" lon="-2.3636618257"><ele>13.12</ele><time>2011-11-16T12:35:48Z</time></trkpt><trkpt lat="51.7673897836" lon="-2.3636353388"><ele>13.12</ele><time>2011-11-16T12:35:54Z</time></trkpt><trkpt lat="51.7672939785" lon="-2.3636717163"><ele>13.12</ele><time>2011-11-16T12:36:02Z</time></trkpt><trkpt lat="51.7671954911" lon="-2.3636938445"><ele>12.63</ele><time>2011-11-16T12:36:10Z</time></trkpt><trkpt lat="51.7670918070" lon="-2.3637036514"><ele>13.12</ele><time>2011-11-16T12:36:18Z</time></trkpt><trkpt lat="51.7669853568" lon="-2.3637194093"><ele>13.12</ele><time>2011-11-16T12:36:27Z</time></trkpt><trkpt lat="51.7669388372" lon="-2.3637198284"><ele>12.63</ele><time>2011-11-16T12:36:31Z</time></trkpt><trkpt lat="51.7668310460" lon="-2.3637172300"><ele>13.12</ele><time>2011-11-16T12:36:39Z</time></trkpt><trkpt lat="51.7667374201" lon="-2.3637130391"><ele>13.60</ele><time>2011-11-16T12:36:46Z</time></trkpt><trkpt lat="51.7666483205" lon="-2.3637246061"><ele>12.63</ele><time>2011-11-16T12:36:53Z</time></trkpt><trkpt lat="51.7665525991" lon="-2.3637250252"><ele>12.63</ele><time>2011-11-16T12:37:01Z</time></trkpt><trkpt lat="51.7664836999" lon="-2.3637288809"><ele>12.63</ele><time>2011-11-16T12:37:07Z</time></trkpt><trkpt lat="51.7663711309" lon="-2.3637988698"><ele>13.12</ele><time>2011-11-16T12:37:17Z</time></trkpt><trkpt lat="51.7662768345" lon="-2.3638525978"><ele>13.12</ele><time>2011-11-16T12:37:27Z</time></trkpt><trkpt lat="51.7662384454" lon="-2.3639005423"><ele>13.12</ele><time>2011-11-16T12:37:37Z</time></trkpt><trkpt lat="51.7662270460" lon="-2.3638907354"><ele>13.60</ele><time>2011-11-16T12:37:44Z</time></trkpt><trkpt lat="51.7662123777" lon="-2.3639178928"><ele>13.12</ele><time>2011-11-16T12:37:56Z</time></trkpt><trkpt lat="51.7662060913" lon="-2.3639289569"><ele>13.12</ele><time>2011-11-16T12:38:05Z</time></trkpt><trkpt lat="51.7662060913" lon="-2.3639289569"><ele>13.12</ele><time>2011-11-16T12:38:21Z</time></trkpt><trkpt lat="51.7662299797" lon="-2.3639857862"><ele>13.12</ele><time>2011-11-16T12:38:27Z</time></trkpt><trkpt lat="51.7662362661" lon="-2.3639997002"><ele>13.12</ele><time>2011-11-16T12:38:28Z</time></trkpt><trkpt lat="51.7662947718" lon="-2.3641406838"><ele>13.12</ele><time>2011-11-16T12:38:37Z</time></trkpt><trkpt lat="51.7663196661" lon="-2.3641968425"><ele>13.12</ele><time>2011-11-16T12:38:43Z</time></trkpt><trkpt lat="51.7663178220" lon="-2.3641939089"><ele>13.60</ele><time>2011-11-16T12:38:52Z</time></trkpt><trkpt lat="51.7663234379" lon="-2.3642023746"><ele>13.12</ele><time>2011-11-16T12:39:03Z</time></trkpt><trkpt lat="51.7663421296" lon="-2.3642460443"><ele>13.12</ele><time>2011-11-16T12:39:10Z</time></trkpt><trkpt lat="51.7663988750" lon="-2.3643555120"><ele>12.63</ele><time>2011-11-16T12:39:17Z</time></trkpt><trkpt lat="51.7664273735" lon="-2.3644117545"><ele>12.63</ele><time>2011-11-16T12:39:24Z</time></trkpt><trkpt lat="51.7664747313" lon="-2.3644862697"><ele>12.63</ele><time>2011-11-16T12:39:31Z</time></trkpt><trkpt lat="51.7665545270" lon="-2.3645990063"><ele>12.63</ele><time>2011-11-16T12:39:40Z</time></trkpt><trkpt lat="51.7666192353" lon="-2.3647171911"><ele>12.63</ele><time>2011-11-16T12:39:48Z</time></trkpt><trkpt lat="51.7667020485" lon="-2.3648772016"><ele>12.63</ele><time>2011-11-16T12:39:57Z</time></trkpt><trkpt lat="51.7667649128" lon="-2.3649988230"><ele>12.63</ele><time>2011-11-16T12:40:05Z</time></trkpt><trkpt lat="51.7668214906" lon="-2.3651047703"><ele>12.63</ele><time>2011-11-16T12:40:12Z</time></trkpt><trkpt lat="51.7668832652" lon="-2.3652139865"><ele>12.15</ele><time>2011-11-16T12:40:21Z</time></trkpt><trkpt lat="51.7668900546" lon="-2.3652223684"><ele>12.15</ele><time>2011-11-16T12:40:22Z</time></trkpt><trkpt lat="51.7669223249" lon="-2.3652563989"><ele>12.15</ele><time>2011-11-16T12:40:26Z</time></trkpt><trkpt lat="51.7670129333" lon="-2.3653501924"><ele>12.15</ele><time>2011-11-16T12:40:35Z</time></trkpt><trkpt lat="51.7671061400" lon="-2.3654012382"><ele>12.63</ele><time>2011-11-16T12:40:42Z</time></trkpt><trkpt lat="51.7671758775" lon="-2.3654696345"><ele>12.15</ele><time>2011-11-16T12:40:49Z</time></trkpt><trkpt lat="51.7672397476" lon="-2.3655956145"><ele>12.15</ele><time>2011-11-16T12:40:58Z</time></trkpt><trkpt lat="51.7672946490" lon="-2.3657137994"><ele>12.15</ele><time>2011-11-16T12:41:08Z</time></trkpt><trkpt lat="51.7673148494" lon="-2.3657514341"><ele>12.63</ele><time>2011-11-16T12:41:15Z</time></trkpt><trkpt lat="51.7673526518" lon="-2.3658422101"><ele>12.15</ele><time>2011-11-16T12:41:23Z</time></trkpt><trkpt lat="51.7674120795" lon="-2.3660156317"><ele>11.67</ele><time>2011-11-16T12:41:32Z</time></trkpt><trkpt lat="51.7674766202" lon="-2.3661516700"><ele>12.15</ele><time>2011-11-16T12:41:41Z</time></trkpt><trkpt lat="51.7675533146" lon="-2.3662503250"><ele>11.67</ele><time>2011-11-16T12:41:49Z</time></trkpt><trkpt lat="51.7675776221" lon="-2.3662447929"><ele>11.19</ele><time>2011-11-16T12:41:51Z</time></trkpt><trkpt lat="51.7676335294" lon="-2.3661991954"><ele>11.19</ele><time>2011-11-16T12:41:56Z</time></trkpt><trkpt lat="51.7677193601" lon="-2.3661527596"><ele>11.19</ele><time>2011-11-16T12:42:06Z</time></trkpt><trkpt lat="51.7678046878" lon="-2.3662011232"><ele>12.15</ele><time>2011-11-16T12:42:15Z</time></trkpt><trkpt lat="51.7678875849" lon="-2.3663388379"><ele>11.67</ele><time>2011-11-16T12:42:25Z</time></trkpt><trkpt lat="51.7679807078" lon="-2.3664286081"><ele>11.67</ele><time>2011-11-16T12:42:33Z</time></trkpt><trkpt lat="51.7680256348" lon="-2.3664436955"><ele>11.19</ele><time>2011-11-16T12:42:37Z</time></trkpt><trkpt lat="51.7681284808" lon="-2.3664829228"><ele>11.19</ele><time>2011-11-16T12:42:46Z</time></trkpt><trkpt lat="51.7682415526" lon="-2.3664952442"><ele>11.67</ele><time>2011-11-16T12:42:56Z</time></trkpt><trkpt lat="51.7683862243" lon="-2.3665104993"><ele>10.71</ele><time>2011-11-16T12:43:08Z</time></trkpt><trkpt lat="51.7684750725" lon="-2.3665408418"><ele>11.19</ele><time>2011-11-16T12:43:17Z</time></trkpt><trkpt lat="51.7685510125" lon="-2.3665315378"><ele>11.67</ele><time>2011-11-16T12:43:24Z</time></trkpt><trkpt lat="51.7686152179" lon="-2.3664643150"><ele>11.67</ele><time>2011-11-16T12:43:31Z</time></trkpt><trkpt lat="51.7686875537" lon="-2.3663778137"><ele>11.19</ele><time>2011-11-16T12:43:39Z</time></trkpt><trkpt lat="51.7687684391" lon="-2.3663074058"><ele>10.71</ele><time>2011-11-16T12:43:49Z</time></trkpt><trkpt lat="51.7688176408" lon="-2.3662392609"><ele>10.71</ele><time>2011-11-16T12:43:55Z</time></trkpt><trkpt lat="51.7688824330" lon="-2.3661543522"><ele>11.19</ele><time>2011-11-16T12:44:03Z</time></trkpt><trkpt lat="51.7688839417" lon="-2.3661468923"><ele>11.19</ele><time>2011-11-16T12:44:09Z</time></trkpt><trkpt lat="51.7688839417" lon="-2.3661468923"><ele>10.71</ele><time>2011-11-16T12:44:17Z</time></trkpt><trkpt lat="51.7689422797" lon="-2.3660766520"><ele>11.19</ele><time>2011-11-16T12:44:23Z</time></trkpt><trkpt lat="51.7690253444" lon="-2.3659515940"><ele>11.19</ele><time>2011-11-16T12:44:31Z</time></trkpt><trkpt lat="51.7690861970" lon="-2.3658862989"><ele>10.71</ele><time>2011-11-16T12:44:37Z</time></trkpt><trkpt lat="51.7691654898" lon="-2.3658262007"><ele>11.19</ele><time>2011-11-16T12:44:45Z</time></trkpt><trkpt lat="51.7692436092" lon="-2.3657619953"><ele>10.71</ele><time>2011-11-16T12:44:52Z</time></trkpt><trkpt lat="51.7693177890" lon="-2.3656864744"><ele>10.71</ele><time>2011-11-16T12:44:58Z</time></trkpt><trkpt lat="51.7694118340" lon="-2.3656396195"><ele>10.71</ele><time>2011-11-16T12:45:05Z</time></trkpt><trkpt lat="51.7695270013" lon="-2.3655853886"><ele>10.71</ele><time>2011-11-16T12:45:13Z</time></trkpt><trkpt lat="51.7696012650" lon="-2.3655594047"><ele>10.71</ele><time>2011-11-16T12:45:20Z</time></trkpt><trkpt lat="51.7697000038" lon="-2.3654816207"><ele>10.71</ele><time>2011-11-16T12:45:29Z</time></trkpt><trkpt lat="51.7697095592" lon="-2.3654775135"><ele>10.71</ele><time>2011-11-16T12:45:37Z</time></trkpt><trkpt lat="51.7697099783" lon="-2.3655182496"><ele>10.23</ele><time>2011-11-16T12:45:50Z</time></trkpt><trkpt lat="51.7697113194" lon="-2.3655460775"><ele>10.23</ele><time>2011-11-16T12:46:02Z</time></trkpt><trkpt lat="51.7697197013" lon="-2.3655777611"><ele>10.71</ele><time>2011-11-16T12:46:11Z</time></trkpt><trkpt lat="51.7697349563" lon="-2.3655635118"><ele>10.23</ele><time>2011-11-16T12:46:21Z</time></trkpt><trkpt lat="51.7697605211" lon="-2.3654998932"><ele>10.23</ele><time>2011-11-16T12:46:25Z</time></trkpt><trkpt lat="51.7698366288" lon="-2.3653949518"><ele>10.71</ele><time>2011-11-16T12:46:34Z</time></trkpt><trkpt lat="51.7699518800" lon="-2.3653193470"><ele>10.23</ele><time>2011-11-16T12:46:45Z</time></trkpt><trkpt lat="51.7700587492" lon="-2.3652360309"><ele>10.23</ele><time>2011-11-16T12:46:55Z</time></trkpt><trkpt lat="51.7701170035" lon="-2.3651843984"><ele>10.23</ele><time>2011-11-16T12:47:03Z</time></trkpt><trkpt lat="51.7701449990" lon="-2.3651824705"><ele>10.23</ele><time>2011-11-16T12:47:11Z</time></trkpt><trkpt lat="51.7701449990" lon="-2.3651824705"><ele>10.23</ele><time>2011-11-16T12:47:25Z</time></trkpt><trkpt lat="51.7701506987" lon="-2.3651741724"><ele>10.23</ele><time>2011-11-16T12:47:33Z</time></trkpt><trkpt lat="51.7702340987" lon="-2.3651009146"><ele>9.75</ele><time>2011-11-16T12:47:42Z</time></trkpt><trkpt lat="51.7703252099" lon="-2.3650307581"><ele>9.75</ele><time>2011-11-16T12:47:51Z</time></trkpt><trkpt lat="51.7703597434" lon="-2.3649887647"><ele>9.75</ele><time>2011-11-16T12:47:55Z</time></trkpt><trkpt lat="51.7704320792" lon="-2.3649279121"><ele>10.23</ele><time>2011-11-16T12:48:03Z</time></trkpt><trkpt lat="51.7705107853" lon="-2.3648699932"><ele>9.75</ele><time>2011-11-16T12:48:11Z</time></trkpt><trkpt lat="51.7706138827" lon="-2.3648193665"><ele>9.75</ele><time>2011-11-16T12:48:19Z</time></trkpt><trkpt lat="51.7706480809" lon="-2.3648004234"><ele>10.71</ele><time>2011-11-16T12:48:23Z</time></trkpt><trkpt lat="51.7707492504" lon="-2.3647392355"><ele>10.71</ele><time>2011-11-16T12:48:33Z</time></trkpt><trkpt lat="51.7708155513" lon="-2.3646776285"><ele>9.75</ele><time>2011-11-16T12:48:39Z</time></trkpt><trkpt lat="51.7709025554" lon="-2.3644702602"><ele>10.23</ele><time>2011-11-16T12:48:48Z</time></trkpt><trkpt lat="51.7709741369" lon="-2.3643656541"><ele>9.75</ele><time>2011-11-16T12:48:56Z</time></trkpt><trkpt lat="51.7710365821" lon="-2.3642485589"><ele>9.75</ele><time>2011-11-16T12:49:04Z</time></trkpt><trkpt lat="51.7710515857" lon="-2.3642258439"><ele>9.75</ele><time>2011-11-16T12:49:06Z</time></trkpt><trkpt lat="51.7710979376" lon="-2.3641738761"><ele>9.75</ele><time>2011-11-16T12:49:11Z</time></trkpt><trkpt lat="51.7711798288" lon="-2.3640715331"><ele>9.75</ele><time>2011-11-16T12:49:19Z</time></trkpt><trkpt lat="51.7712838482" lon="-2.3639855348"><ele>9.75</ele><time>2011-11-16T12:49:27Z</time></trkpt><trkpt lat="51.7713763006" lon="-2.3639069125"><ele>9.75</ele><time>2011-11-16T12:49:35Z</time></trkpt><trkpt lat="51.7714017816" lon="-2.3638996202"><ele>9.75</ele><time>2011-11-16T12:49:37Z</time></trkpt><trkpt lat="51.7714942340" lon="-2.3638720438"><ele>9.27</ele><time>2011-11-16T12:49:44Z</time></trkpt><trkpt lat="51.7715172004" lon="-2.3638583813"><ele>9.75</ele><time>2011-11-16T12:49:47Z</time></trkpt><trkpt lat="51.7716161069" lon="-2.3638681043"><ele>9.75</ele><time>2011-11-16T12:49:55Z</time></trkpt><trkpt lat="51.7716912087" lon="-2.3638709541"><ele>9.75</ele><time>2011-11-16T12:50:02Z</time></trkpt><trkpt lat="51.7717377283" lon="-2.3639491573"><ele>9.27</ele><time>2011-11-16T12:50:10Z</time></trkpt><trkpt lat="51.7717947252" lon="-2.3640888836"><ele>9.75</ele><time>2011-11-16T12:50:19Z</time></trkpt><trkpt lat="51.7717979103" lon="-2.3641009536"><ele>9.75</ele><time>2011-11-16T12:50:20Z</time></trkpt><trkpt lat="51.7718525603" lon="-2.3642193899"><ele>9.75</ele><time>2011-11-16T12:50:28Z</time></trkpt><trkpt lat="51.7718934640" lon="-2.3643316235"><ele>10.23</ele><time>2011-11-16T12:50:36Z</time></trkpt><trkpt lat="51.7718931288" lon="-2.3644363135"><ele>10.23</ele><time>2011-11-16T12:50:44Z</time></trkpt></trkseg></trk></gpx>